Time,TemperatureF,DewpointF,PressureIn,WindDirection,WindDirectionDegrees,WindSpeedMPH,WindSpeedGustMPH,Humidity,HourlyPrecipIn,Conditions,Clouds,dailyrainin,SoftwareType,DateUTC
2013-04-27 00:00:00,41.5,21.2,30.28,SSW,202,0.0,0.0,44,0.00,CLR,,0.00,WeatherDisplay:10.37,2013-04-27 04:00:00,
2013-04-27 00:01:00,41.5,21.2,30.28,SSW,202,0.0,0.0,44,0.00,CLR,,0.00,WeatherDisplay:10.37,2013-04-27 04:01:00,
2013-04-27 00:06:00,41.2,20.9,30.28,SSW,202,0.0,0.0,44,0.00,CLR,,0.00,WeatherDisplay:10.37,2013-04-27 04:06:00,
2013-04-27 00:11:00,41.2,20.9,30.28,SSW,202,0.0,0.0,44,0.00,CLR,,0.00,WeatherDisplay:10.37,2013-04-27 04:11:00,
2013-04-27 00:12:00,41.2,20.9,30.28,WSW,248,0.0,0.0,44,0.00,CLR,,0.00,WeatherDisplay:10.37,2013-04-27 04:12:00,
2013-04-27 00:16:00,41.4,21.6,30.28,NW,315,0.0,0.0,45,0.00,CLR,,0.00,WeatherDisplay:10.37,2013-04-27 04:16:00,
2013-04-27 00:17:00,41.4,21.6,30.28,NW,315,0.0,0.0,45,0.00,CLR,,0.00,WeatherDisplay:10.37,2013-04-27 04:17:00,
2013-04-27 00:21:00,41.5,22.3,30.28,WNW,292,0.0,0.0,46,0.00,CLR,,0.00,WeatherDisplay:10.37,2013-04-27 04:21:00,
2013-04-27 00:22:00,41.5,22.3,30.28,WNW,292,0.0,0.0,46,0.00,CLR,,0.00,WeatherDisplay:10.37,2013-04-27 04:22:00,
2013-04-27 00:26:00,41.5,22.3,30.28,NW,315,0.0,0.0,46,0.00,CLR,,0.00,WeatherDisplay:10.37,2013-04-27 04:26:00,
2013-04-27 00:27:00,41.7,22.4,30.28,WNW,292,0.0,0.0,46,0.00,CLR,,0.00,WeatherDisplay:10.37,2013-04-27 04:27:00,
2013-04-27 00:31:00,41.9,23.1,30.28,West,270,0.0,0.0,47,0.00,CLR,,0.00,WeatherDisplay:10.37,2013-04-27 04:31:00,
2013-04-27 00:32:00,41.9,23.1,30.28,West,270,0.0,0.0,47,0.00,CLR,,0.00,WeatherDisplay:10.37,2013-04-27 04:32:00,
2013-04-27 00:33:00,41.9,23.1,30.28,WNW,292,0.0,0.0,47,0.00,CLR,,0.00,WeatherDisplay:10.37,2013-04-27 04:33:00,
2013-04-27 00:36:00,42.1,23.8,30.28,West,270,0.0,0.0,48,0.00,CLR,,0.00,WeatherDisplay:10.37,2013-04-27 04:36:00,
2013-04-27 00:37:00,42.1,23.8,30.28,West,270,0.0,0.0,48,0.00,CLR,,0.00,WeatherDisplay:10.37,2013-04-27 04:37:00,
2013-04-27 00:39:00,42.3,23.9,30.28,West,270,0.0,0.0,48,0.00,CLR,,0.00,WeatherDisplay:10.37,2013-04-27 04:39:00,
2013-04-27 00:42:00,42.4,24.1,30.28,WNW,292,1.1,0.0,48,0.00,CLR,,0.00,WeatherDisplay:10.37,2013-04-27 04:42:00,
2013-04-27 00:43:00,42.4,23.6,30.28,WNW,292,3.6,0.0,47,0.00,CLR,,0.00,WeatherDisplay:10.37,2013-04-27 04:43:00,
2013-04-27 00:44:00,42.4,24.1,30.28,West,270,3.5,3.5,48,0.00,CLR,,0.00,WeatherDisplay:10.37,2013-04-27 04:44:00,
2013-04-27 00:47:00,42.6,24.3,30.28,WSW,248,0.0,0.0,48,0.00,CLR,,0.00,WeatherDisplay:10.37,2013-04-27 04:47:00,
2013-04-27 00:48:00,42.6,24.3,30.28,WSW,248,0.0,0.0,48,0.00,CLR,,0.00,WeatherDisplay:10.37,2013-04-27 04:48:00,
2013-04-27 00:49:00,42.8,23.9,30.28,West,270,5.8,5.8,47,0.00,CLR,,0.00,WeatherDisplay:10.37,2013-04-27 04:49:00,
2013-04-27 00:52:00,42.8,23.9,30.28,WSW,248,0.0,1.4,47,0.00,CLR,,0.00,WeatherDisplay:10.37,2013-04-27 04:52:00,
2013-04-27 00:53:00,42.8,23.9,30.28,WNW,292,0.0,1.4,47,0.00,CLR,,0.00,WeatherDisplay:10.37,2013-04-27 04:53:00,
2013-04-27 00:54:00,42.8,23.9,30.25,WSW,248,0.0,0.0,47,0.00,CLR,,0.00,WeatherDisplay:10.37,2013-04-27 04:54:00,
2013-04-27 00:57:00,43.0,24.1,30.25,WSW,248,2.3,2.3,47,0.00,CLR,,0.00,WeatherDisplay:10.37,2013-04-27 04:57:00,
2013-04-27 00:58:00,43.0,24.1,30.25,WSW,248,2.3,2.3,47,0.00,CLR,,0.00,WeatherDisplay:10.37,2013-04-27 04:58:00,
2013-04-27 00:59:00,43.0,24.1,30.25,WSW,248,2.3,2.3,47,0.00,CLR,,0.00,WeatherDisplay:10.37,2013-04-27 04:59:00,
2013-04-27 01:00:00,43.0,24.1,30.25,WSW,248,2.3,2.3,47,0.00,CLR,,0.00,WeatherDisplay:10.37,2013-04-27 05:00:00,
2013-04-27 01:02:00,43.0,24.1,30.25,WSW,248,0.0,0.0,47,0.00,CLR,,0.00,WeatherDisplay:10.37,2013-04-27 05:02:00,
2013-04-27 01:03:00,43.0,24.1,30.25,SW,225,0.0,0.0,47,0.00,CLR,,0.00,WeatherDisplay:10.37,2013-04-27 05:03:00,
2013-04-27 01:04:00,43.0,24.1,30.25,SW,225,0.0,0.0,47,0.00,CLR,,0.00,WeatherDisplay:10.37,2013-04-27 05:04:00,
2013-04-27 01:05:00,43.0,24.1,30.25,SSW,202,0.0,0.0,47,0.00,CLR,,0.00,WeatherDisplay:10.37,2013-04-27 05:05:00,
2013-04-27 01:07:00,43.0,24.1,30.25,SSW,202,0.0,0.0,47,0.00,CLR,,0.00,WeatherDisplay:10.37,2013-04-27 05:07:00,
2013-04-27 01:08:00,42.8,23.9,30.28,SSW,202,0.0,0.0,47,0.00,CLR,,0.00,WeatherDisplay:10.37,2013-04-27 05:08:00,
2013-04-27 01:09:00,42.8,23.4,30.28,SSW,202,0.0,0.0,46,0.00,CLR,,0.00,WeatherDisplay:10.37,2013-04-27 05:09:00,
2013-04-27 01:10:00,42.8,23.4,30.28,South,180,0.0,0.0,46,0.00,CLR,,0.00,WeatherDisplay:10.37,2013-04-27 05:10:00,
2013-04-27 01:14:00,42.6,23.8,30.28,West,270,2.3,0.0,47,0.00,CLR,,0.00,WeatherDisplay:10.37,2013-04-27 05:14:00,
2013-04-27 01:15:00,42.6,23.8,30.28,West,270,2.3,0.0,47,0.00,CLR,,0.00,WeatherDisplay:10.37,2013-04-27 05:15:00,
2013-04-27 01:16:00,42.6,23.8,30.28,West,270,2.3,0.0,47,0.00,CLR,,0.00,WeatherDisplay:10.37,2013-04-27 05:16:00,
2013-04-27 01:19:00,42.4,23.6,30.28,West,270,0.0,0.0,47,0.00,CLR,,0.00,WeatherDisplay:10.37,2013-04-27 05:19:00,
2013-04-27 01:20:00,42.3,23.4,30.28,WSW,248,0.0,0.0,47,0.00,CLR,,0.00,WeatherDisplay:10.37,2013-04-27 05:20:00,
2013-04-27 01:21:00,42.3,23.4,30.28,WSW,248,0.0,0.0,47,0.00,CLR,,0.00,WeatherDisplay:10.37,2013-04-27 05:21:00,
2013-04-27 01:24:00,42.3,23.9,30.28,WSW,248,0.0,0.0,48,0.00,CLR,,0.00,WeatherDisplay:10.37,2013-04-27 05:24:00,
2013-04-27 01:25:00,42.3,23.9,30.28,WSW,248,0.0,0.0,48,0.00,CLR,,0.00,WeatherDisplay:10.37,2013-04-27 05:25:00,
2013-04-27 01:26:00,42.3,23.9,30.28,WSW,248,0.0,0.0,48,0.00,CLR,,0.00,WeatherDisplay:10.37,2013-04-27 05:26:00,
2013-04-27 01:29:00,42.1,23.8,30.28,WSW,248,0.0,0.0,48,0.00,CLR,,0.00,WeatherDisplay:10.37,2013-04-27 05:29:00,
2013-04-27 01:30:00,42.1,23.8,30.28,WSW,248,0.0,0.0,48,0.00,CLR,,0.00,WeatherDisplay:10.37,2013-04-27 05:30:00,
2013-04-27 01:32:00,42.1,23.8,30.28,WSW,248,0.0,0.0,48,0.00,CLR,,0.00,WeatherDisplay:10.37,2013-04-27 05:32:00,
2013-04-27 01:34:00,42.1,23.8,30.28,WNW,292,0.0,0.0,48,0.00,CLR,,0.00,WeatherDisplay:10.37,2013-04-27 05:34:00,
2013-04-27 01:35:00,42.1,23.8,30.28,WNW,292,0.0,0.0,48,0.00,CLR,,0.00,WeatherDisplay:10.37,2013-04-27 05:35:00,
2013-04-27 01:36:00,41.9,23.6,30.28,WNW,292,0.0,0.0,48,0.00,CLR,,0.00,WeatherDisplay:10.37,2013-04-27 05:36:00,
2013-04-27 01:37:00,41.9,23.6,30.28,NW,315,0.0,0.0,48,0.00,CLR,,0.00,WeatherDisplay:10.37,2013-04-27 05:37:00,
2013-04-27 01:39:00,41.7,23.9,30.28,NW,315,0.0,0.0,49,0.00,CLR,,0.00,WeatherDisplay:10.37,2013-04-27 05:39:00,
2013-04-27 01:40:00,41.7,23.9,30.28,NW,315,0.0,0.0,49,0.00,CLR,,0.00,WeatherDisplay:10.37,2013-04-27 05:40:00,
2013-04-27 01:41:00,41.7,23.9,30.28,NW,315,0.0,0.0,49,0.00,CLR,,0.00,WeatherDisplay:10.37,2013-04-27 05:41:00,
2013-04-27 01:42:00,41.7,23.9,30.28,NW,315,0.0,0.0,49,0.00,CLR,,0.00,WeatherDisplay:10.37,2013-04-27 05:42:00,
2013-04-27 01:44:00,41.7,23.9,30.28,NW,315,0.0,0.0,49,0.00,CLR,,0.00,WeatherDisplay:10.37,2013-04-27 05:44:00,
2013-04-27 01:45:00,41.7,23.9,30.28,NW,315,0.0,0.0,49,0.00,CLR,,0.00,WeatherDisplay:10.37,2013-04-27 05:45:00,
2013-04-27 01:46:00,41.7,23.9,30.28,NW,315,0.0,0.0,49,0.00,CLR,,0.00,WeatherDisplay:10.37,2013-04-27 05:46:00,
2013-04-27 01:47:00,41.7,23.9,30.28,NW,315,0.0,0.0,49,0.00,CLR,,0.00,WeatherDisplay:10.37,2013-04-27 05:47:00,
2013-04-27 01:49:00,41.5,23.8,30.28,WSW,248,0.0,0.0,49,0.00,CLR,,0.00,WeatherDisplay:10.37,2013-04-27 05:49:00,
2013-04-27 01:50:00,41.5,23.8,30.28,WSW,248,0.0,0.0,49,0.00,CLR,,0.00,WeatherDisplay:10.37,2013-04-27 05:50:00,
2013-04-27 01:51:00,41.5,23.8,30.28,WSW,248,0.0,0.0,49,0.00,CLR,,0.00,WeatherDisplay:10.37,2013-04-27 05:51:00,
2013-04-27 01:52:00,41.5,24.3,30.28,WSW,248,0.0,0.0,50,0.00,CLR,,0.00,WeatherDisplay:10.37,2013-04-27 05:52:00,
2013-04-27 01:54:00,41.5,24.3,30.28,WSW,248,0.0,0.0,50,0.00,CLR,,0.00,WeatherDisplay:10.37,2013-04-27 05:54:00,
2013-04-27 01:56:00,41.5,24.3,30.28,WSW,248,0.0,0.0,50,0.00,CLR,,0.00,WeatherDisplay:10.37,2013-04-27 05:56:00,
2013-04-27 01:57:00,41.7,24.4,30.28,WSW,248,0.0,0.0,50,0.00,CLR,,0.00,WeatherDisplay:10.37,2013-04-27 05:57:00,
2013-04-27 01:59:00,41.7,24.9,30.28,WSW,248,0.0,0.0,51,0.00,CLR,,0.00,WeatherDisplay:10.37,2013-04-27 05:59:00,
2013-04-27 02:01:00,41.7,24.9,30.28,WSW,248,0.0,0.0,51,0.00,CLR,,0.00,WeatherDisplay:10.37,2013-04-27 06:01:00,
2013-04-27 02:02:00,41.7,24.9,30.28,WSW,248,0.0,0.0,51,0.00,CLR,,0.00,WeatherDisplay:10.37,2013-04-27 06:02:00,
2013-04-27 02:05:00,41.7,24.9,30.28,WSW,248,0.0,0.0,51,0.00,CLR,,0.00,WeatherDisplay:10.37,2013-04-27 06:05:00,
2013-04-27 02:06:00,41.7,24.9,30.28,West,270,0.0,1.4,51,0.00,CLR,,0.00,WeatherDisplay:10.37,2013-04-27 06:06:00,
2013-04-27 02:07:00,41.7,24.9,30.28,West,270,0.0,0.0,51,0.00,CLR,,0.00,WeatherDisplay:10.37,2013-04-27 06:07:00,
2013-04-27 02:08:00,41.7,24.9,30.28,WSW,248,0.0,0.0,51,0.00,CLR,,0.00,WeatherDisplay:10.37,2013-04-27 06:08:00,
2013-04-27 02:10:00,41.7,24.9,30.28,West,270,3.5,3.5,51,0.00,CLR,,0.00,WeatherDisplay:10.37,2013-04-27 06:10:00,
2013-04-27 02:11:00,41.7,24.9,30.28,West,270,2.3,2.3,51,0.00,CLR,,0.00,WeatherDisplay:10.37,2013-04-27 06:11:00,
2013-04-27 02:12:00,41.7,24.9,30.28,West,270,2.3,2.3,51,0.00,CLR,,0.00,WeatherDisplay:10.37,2013-04-27 06:12:00,
2013-04-27 02:13:00,41.7,24.9,30.28,West,270,2.3,2.3,51,0.00,CLR,,0.00,WeatherDisplay:10.37,2013-04-27 06:13:00,
2013-04-27 02:15:00,41.7,24.9,30.28,West,270,2.3,2.3,51,0.00,CLR,,0.00,WeatherDisplay:10.37,2013-04-27 06:15:00,
2013-04-27 02:16:00,41.7,24.9,30.28,West,270,2.3,2.3,51,0.00,CLR,,0.00,WeatherDisplay:10.37,2013-04-27 06:16:00,
2013-04-27 02:17:00,41.7,25.4,30.28,West,270,2.3,2.3,52,0.00,CLR,,0.00,WeatherDisplay:10.37,2013-04-27 06:17:00,
2013-04-27 02:18:00,41.7,25.4,30.28,West,270,2.3,2.6,52,0.00,CLR,,0.00,WeatherDisplay:10.37,2013-04-27 06:18:00,
2013-04-27 02:21:00,41.9,25.1,30.28,WSW,248,0.0,0.0,51,0.00,CLR,,0.00,WeatherDisplay:10.37,2013-04-27 06:21:00,
2013-04-27 02:22:00,41.9,25.1,30.28,WSW,248,0.0,0.0,51,0.00,CLR,,0.00,WeatherDisplay:10.37,2013-04-27 06:22:00,
2013-04-27 02:23:00,41.9,25.1,30.28,WSW,248,0.0,0.0,51,0.00,CLR,,0.00,WeatherDisplay:10.37,2013-04-27 06:23:00,
2013-04-27 02:24:00,41.9,25.1,30.28,South,180,0.0,1.4,51,0.00,CLR,,0.00,WeatherDisplay:10.37,2013-04-27 06:24:00,
2013-04-27 02:26:00,41.7,24.9,30.28,WNW,292,1.1,0.0,51,0.00,CLR,,0.00,WeatherDisplay:10.37,2013-04-27 06:26:00,
2013-04-27 02:27:00,41.7,24.9,30.28,West,270,1.1,0.0,51,0.00,CLR,,0.00,WeatherDisplay:10.37,2013-04-27 06:27:00,
2013-04-27 02:28:00,41.7,24.9,30.28,WSW,248,1.1,0.0,51,0.00,CLR,,0.00,WeatherDisplay:10.37,2013-04-27 06:28:00,
2013-04-27 02:29:00,41.7,24.9,30.28,SW,225,2.4,2.4,51,0.00,CLR,,0.00,WeatherDisplay:10.37,2013-04-27 06:29:00,
2013-04-27 02:31:00,41.7,24.9,30.28,SW,225,2.4,2.4,51,0.00,CLR,,0.00,WeatherDisplay:10.37,2013-04-27 06:31:00,
2013-04-27 02:32:00,41.7,24.9,30.28,SW,225,2.4,2.4,51,0.00,CLR,,0.00,WeatherDisplay:10.37,2013-04-27 06:32:00,
2013-04-27 02:33:00,41.7,24.9,30.28,SW,225,2.4,2.4,51,0.00,CLR,,0.00,WeatherDisplay:10.37,2013-04-27 06:33:00,
2013-04-27 02:34:00,41.7,24.9,30.28,SW,225,2.4,2.4,51,0.00,CLR,,0.00,WeatherDisplay:10.37,2013-04-27 06:34:00,
2013-04-27 02:36:00,41.7,25.4,30.28,WSW,248,2.3,0.0,52,0.00,CLR,,0.00,WeatherDisplay:10.37,2013-04-27 06:36:00,
2013-04-27 02:37:00,41.7,25.4,30.28,WSW,248,0.0,0.0,52,0.00,CLR,,0.00,WeatherDisplay:10.37,2013-04-27 06:37:00,
2013-04-27 02:38:00,41.7,25.4,30.28,WSW,248,0.0,0.0,52,0.00,CLR,,0.00,WeatherDisplay:10.37,2013-04-27 06:38:00,
2013-04-27 02:39:00,41.5,24.7,30.28,WSW,248,0.0,0.0,51,0.00,CLR,,0.00,WeatherDisplay:10.37,2013-04-27 06:39:00,
2013-04-27 02:41:00,41.5,24.7,30.28,WSW,248,0.0,0.0,51,0.00,CLR,,0.00,WeatherDisplay:10.37,2013-04-27 06:41:00,
2013-04-27 02:43:00,41.5,25.2,30.28,WSW,248,0.0,0.0,52,0.00,CLR,,0.00,WeatherDisplay:10.37,2013-04-27 06:43:00,
2013-04-27 02:44:00,41.4,25.0,30.28,WSW,248,0.0,0.0,52,0.00,CLR,,0.00,WeatherDisplay:10.37,2013-04-27 06:44:00,
2013-04-27 02:46:00,41.4,25.0,30.28,WNW,292,0.0,0.9,52,0.00,CLR,,0.00,WeatherDisplay:10.37,2013-04-27 06:46:00,
2013-04-27 02:48:00,41.4,25.0,30.28,WNW,292,0.0,0.0,52,0.00,CLR,,0.00,WeatherDisplay:10.37,2013-04-27 06:48:00,
2013-04-27 02:49:00,41.2,24.9,30.28,WNW,292,0.0,0.0,52,0.00,CLR,,0.00,WeatherDisplay:10.37,2013-04-27 06:49:00,
2013-04-27 02:51:00,41.2,24.9,30.28,WSW,248,0.0,0.0,52,0.00,CLR,,0.00,WeatherDisplay:10.37,2013-04-27 06:51:00,
2013-04-27 02:53:00,41.2,24.9,30.28,WSW,248,0.0,0.0,52,0.00,CLR,,0.00,WeatherDisplay:10.37,2013-04-27 06:53:00,
2013-04-27 02:54:00,41.2,24.9,30.28,WSW,248,0.0,0.0,52,0.00,CLR,,0.00,WeatherDisplay:10.37,2013-04-27 06:54:00,
2013-04-27 02:56:00,41.2,25.3,30.28,WSW,248,0.0,0.0,53,0.00,CLR,,0.00,WeatherDisplay:10.37,2013-04-27 06:56:00,
2013-04-27 02:58:00,41.2,25.3,30.28,WSW,248,0.0,0.0,53,0.00,CLR,,0.00,WeatherDisplay:10.37,2013-04-27 06:58:00,
2013-04-27 02:59:00,41.2,25.3,30.28,WSW,248,2.4,2.4,53,0.00,CLR,,0.00,WeatherDisplay:10.37,2013-04-27 06:59:00,
2013-04-27 03:02:00,41.2,25.3,30.28,West,270,2.6,2.6,53,0.00,CLR,,0.00,WeatherDisplay:10.37,2013-04-27 07:02:00,
2013-04-27 03:03:00,41.2,25.8,30.28,WNW,292,2.4,2.4,54,0.00,CLR,,0.00,WeatherDisplay:10.37,2013-04-27 07:03:00,
2013-04-27 03:04:00,41.2,25.8,30.28,West,270,4.6,4.6,54,0.00,CLR,,0.00,WeatherDisplay:10.37,2013-04-27 07:04:00,
2013-04-27 03:05:00,41.2,25.8,30.28,West,270,4.6,4.6,54,0.00,CLR,,0.00,WeatherDisplay:10.37,2013-04-27 07:05:00,
2013-04-27 03:07:00,41.0,25.2,30.28,West,270,0.0,0.0,53,0.00,CLR,,0.00,WeatherDisplay:10.37,2013-04-27 07:07:00,
2013-04-27 03:08:00,41.0,25.2,30.28,West,270,0.0,0.0,53,0.00,CLR,,0.00,WeatherDisplay:10.37,2013-04-27 07:08:00,
2013-04-27 03:10:00,41.0,25.2,30.28,WSW,248,0.0,0.0,53,0.00,CLR,,0.00,WeatherDisplay:10.37,2013-04-27 07:10:00,
2013-04-27 03:13:00,41.0,25.2,30.28,West,270,0.0,0.0,53,0.00,CLR,,0.00,WeatherDisplay:10.37,2013-04-27 07:13:00,
2013-04-27 03:15:00,40.8,25.4,30.28,WSW,248,0.0,0.0,54,0.00,CLR,,0.00,WeatherDisplay:10.37,2013-04-27 07:15:00,
2013-04-27 03:18:00,40.6,25.3,30.28,WSW,248,0.0,0.0,54,0.00,CLR,,0.00,WeatherDisplay:10.37,2013-04-27 07:18:00,
2013-04-27 03:19:00,40.6,25.3,30.28,WSW,248,0.0,0.0,54,0.00,CLR,,0.00,WeatherDisplay:10.37,2013-04-27 07:19:00,
2013-04-27 03:20:00,40.6,25.3,30.28,WSW,248,0.0,0.0,54,0.00,CLR,,0.00,WeatherDisplay:10.37,2013-04-27 07:20:00,
2013-04-27 03:21:00,40.6,25.3,30.28,WSW,248,0.0,0.0,54,0.00,CLR,,0.00,WeatherDisplay:10.37,2013-04-27 07:21:00,
2013-04-27 03:23:00,40.6,25.3,30.28,WSW,248,0.0,0.0,54,0.00,CLR,,0.00,WeatherDisplay:10.37,2013-04-27 07:23:00,
2013-04-27 03:24:00,40.6,25.3,30.28,WSW,248,0.0,0.0,54,0.00,CLR,,0.00,WeatherDisplay:10.37,2013-04-27 07:24:00,
2013-04-27 03:25:00,40.6,25.3,30.28,WSW,248,0.0,0.0,54,0.00,CLR,,0.00,WeatherDisplay:10.37,2013-04-27 07:25:00,
2013-04-27 03:26:00,40.6,25.3,30.28,WSW,248,0.0,0.0,54,0.00,CLR,,0.00,WeatherDisplay:10.37,2013-04-27 07:26:00,
2013-04-27 03:28:00,40.5,25.5,30.28,WSW,248,0.0,0.0,55,0.00,CLR,,0.00,WeatherDisplay:10.37,2013-04-27 07:28:00,
2013-04-27 03:29:00,40.5,25.5,30.28,WSW,248,0.0,0.0,55,0.00,CLR,,0.00,WeatherDisplay:10.37,2013-04-27 07:29:00,
2013-04-27 03:30:00,40.5,25.5,30.28,WSW,248,0.0,0.0,55,0.00,CLR,,0.00,WeatherDisplay:10.37,2013-04-27 07:30:00,
2013-04-27 03:31:00,40.5,25.5,30.28,WSW,248,0.0,0.0,55,0.00,CLR,,0.00,WeatherDisplay:10.37,2013-04-27 07:31:00,
2013-04-27 03:34:00,40.5,25.5,30.28,WSW,248,0.0,0.0,55,0.00,CLR,,0.00,WeatherDisplay:10.37,2013-04-27 07:34:00,
2013-04-27 03:35:00,40.5,25.5,30.28,WSW,248,0.0,0.0,55,0.00,CLR,,0.00,WeatherDisplay:10.37,2013-04-27 07:35:00,
2013-04-27 03:36:00,40.5,25.5,30.28,WSW,248,0.0,0.0,55,0.00,CLR,,0.00,WeatherDisplay:10.37,2013-04-27 07:36:00,
2013-04-27 03:39:00,40.3,25.4,30.28,SSW,202,0.0,0.0,55,0.00,CLR,,0.00,WeatherDisplay:10.37,2013-04-27 07:39:00,
2013-04-27 03:41:00,40.3,25.8,30.28,SSW,202,0.0,0.0,56,0.00,CLR,,0.00,WeatherDisplay:10.37,2013-04-27 07:41:00,
2013-04-27 03:44:00,40.3,25.8,30.28,WSW,248,0.0,0.0,56,0.00,CLR,,0.00,WeatherDisplay:10.37,2013-04-27 07:44:00,
2013-04-27 03:46:00,40.1,25.6,30.28,WSW,248,0.0,0.0,56,0.00,CLR,,0.00,WeatherDisplay:10.37,2013-04-27 07:46:00,
2013-04-27 03:49:00,40.1,25.6,30.28,WSW,248,0.0,0.0,56,0.00,CLR,,0.00,WeatherDisplay:10.37,2013-04-27 07:49:00,
2013-04-27 03:50:00,40.1,25.6,30.28,West,270,0.0,0.0,56,0.00,CLR,,0.00,WeatherDisplay:10.37,2013-04-27 07:50:00,
2013-04-27 03:51:00,40.1,25.6,30.28,WNW,292,0.0,0.0,56,0.00,CLR,,0.00,WeatherDisplay:10.37,2013-04-27 07:51:00,
2013-04-27 03:54:00,40.1,26.1,30.28,WNW,292,0.0,0.0,57,0.00,CLR,,0.00,WeatherDisplay:10.37,2013-04-27 07:54:00,
2013-04-27 03:55:00,39.9,25.9,30.28,WSW,248,2.4,2.4,57,0.00,CLR,,0.00,WeatherDisplay:10.37,2013-04-27 07:55:00,
2013-04-27 03:56:00,39.9,26.3,30.28,WSW,248,2.4,2.4,58,0.00,CLR,,0.00,WeatherDisplay:10.37,2013-04-27 07:56:00,
2013-04-27 03:57:00,39.9,26.3,30.28,West,270,4.6,4.6,58,0.00,CLR,,0.00,WeatherDisplay:10.37,2013-04-27 07:57:00,
2013-04-27 03:59:00,40.1,26.9,30.28,West,270,4.6,4.6,59,0.00,CLR,,0.00,WeatherDisplay:10.37,2013-04-27 07:59:00,
2013-04-27 04:00:00,40.1,26.9,30.28,West,270,4.6,4.6,59,0.00,CLR,,0.00,WeatherDisplay:10.37,2013-04-27 08:00:00,
2013-04-27 04:01:00,40.1,27.3,30.28,West,270,4.6,4.6,60,0.00,CLR,,0.00,WeatherDisplay:10.37,2013-04-27 08:01:00,
2013-04-27 04:02:00,40.1,26.9,30.28,WNW,292,4.6,4.6,59,0.00,CLR,,0.00,WeatherDisplay:10.37,2013-04-27 08:02:00,
2013-04-27 04:05:00,40.1,26.9,30.28,WSW,248,3.6,3.6,59,0.00,CLR,,0.00,WeatherDisplay:10.37,2013-04-27 08:05:00,
2013-04-27 04:06:00,40.1,27.3,30.28,WSW,248,3.6,3.6,60,0.00,CLR,,0.00,WeatherDisplay:10.37,2013-04-27 08:06:00,
2013-04-27 04:07:00,40.1,27.3,30.28,WSW,248,3.6,3.6,60,0.00,CLR,,0.00,WeatherDisplay:10.37,2013-04-27 08:07:00,
2013-04-27 04:10:00,40.1,26.9,30.28,WNW,292,3.5,3.5,59,0.00,CLR,,0.00,WeatherDisplay:10.37,2013-04-27 08:10:00,
2013-04-27 04:11:00,40.1,26.9,30.28,West,270,3.5,0.0,59,0.00,CLR,,0.00,WeatherDisplay:10.37,2013-04-27 08:11:00,
2013-04-27 04:12:00,40.1,26.9,30.28,West,270,1.1,0.0,59,0.00,CLR,,0.00,WeatherDisplay:10.37,2013-04-27 08:12:00,
2013-04-27 04:15:00,40.1,26.9,30.28,West,270,0.0,0.0,59,0.00,CLR,,0.00,WeatherDisplay:10.37,2013-04-27 08:15:00,
2013-04-27 04:16:00,40.1,26.9,30.28,West,270,0.0,0.0,59,0.00,CLR,,0.00,WeatherDisplay:10.37,2013-04-27 08:16:00,
2013-04-27 04:17:00,40.1,27.3,30.28,West,270,0.0,0.0,60,0.00,CLR,,0.00,WeatherDisplay:10.37,2013-04-27 08:17:00,
2013-04-27 04:20:00,39.9,26.7,30.28,West,270,0.0,0.0,59,0.00,CLR,,0.00,WeatherDisplay:10.37,2013-04-27 08:20:00,
2013-04-27 04:21:00,39.9,26.7,30.28,West,270,0.0,0.0,59,0.00,CLR,,0.00,WeatherDisplay:10.37,2013-04-27 08:21:00,
2013-04-27 04:22:00,39.9,26.7,30.28,WSW,248,0.0,0.0,59,0.00,CLR,,0.00,WeatherDisplay:10.37,2013-04-27 08:22:00,
2013-04-27 04:25:00,39.7,26.6,30.28,WSW,248,0.0,0.0,59,0.00,CLR,,0.00,WeatherDisplay:10.37,2013-04-27 08:25:00,
2013-04-27 04:26:00,39.7,26.6,30.28,WSW,248,0.0,0.0,59,0.00,CLR,,0.00,WeatherDisplay:10.37,2013-04-27 08:26:00,
2013-04-27 04:27:00,39.7,26.6,30.28,WSW,248,0.0,0.0,59,0.00,CLR,,0.00,WeatherDisplay:10.37,2013-04-27 08:27:00,
2013-04-27 04:31:00,39.7,26.6,30.28,WSW,248,0.0,0.0,59,0.00,CLR,,0.00,WeatherDisplay:10.37,2013-04-27 08:31:00,
2013-04-27 04:32:00,39.6,26.4,30.28,WSW,248,0.0,0.0,59,0.00,CLR,,0.00,WeatherDisplay:10.37,2013-04-27 08:32:00,
2013-04-27 04:36:00,39.6,26.4,30.28,WSW,248,0.0,0.0,59,0.00,CLR,,0.00,WeatherDisplay:10.37,2013-04-27 08:36:00,
2013-04-27 04:37:00,39.6,26.8,30.28,WSW,248,0.0,0.0,60,0.00,CLR,,0.00,WeatherDisplay:10.37,2013-04-27 08:37:00,
2013-04-27 04:42:00,39.4,26.6,30.25,WSW,248,0.0,0.0,60,0.00,CLR,,0.00,WeatherDisplay:10.37,2013-04-27 08:42:00,
2013-04-27 04:43:00,39.4,26.6,30.25,WSW,248,0.0,0.0,60,0.00,CLR,,0.00,WeatherDisplay:10.37,2013-04-27 08:43:00,
2013-04-27 04:47:00,39.2,26.9,30.25,WSW,248,1.1,0.0,61,0.00,CLR,,0.00,WeatherDisplay:10.37,2013-04-27 08:47:00,
2013-04-27 04:48:00,39.2,26.9,30.25,WSW,248,1.1,1.1,61,0.00,CLR,,0.00,WeatherDisplay:10.37,2013-04-27 08:48:00,
2013-04-27 04:52:00,39.4,27.4,30.25,WSW,248,1.1,1.1,62,0.00,CLR,,0.00,WeatherDisplay:10.37,2013-04-27 08:52:00,
2013-04-27 04:53:00,39.4,27.8,30.25,WSW,248,1.1,2.0,63,0.00,CLR,,0.00,WeatherDisplay:10.37,2013-04-27 08:53:00,
2013-04-27 04:54:00,39.4,27.8,30.25,WSW,248,1.1,2.0,63,0.00,CLR,,0.00,WeatherDisplay:10.37,2013-04-27 08:54:00,
2013-04-27 04:57:00,39.4,28.2,30.25,WSW,248,0.0,2.0,64,0.00,CLR,,0.00,WeatherDisplay:10.37,2013-04-27 08:57:00,
2013-04-27 04:58:00,39.4,28.2,30.25,WSW,248,0.0,2.0,64,0.00,CLR,,0.00,WeatherDisplay:10.37,2013-04-27 08:58:00,
2013-04-27 04:59:00,39.4,27.8,30.25,NW,315,0.0,0.0,63,0.00,CLR,,0.00,WeatherDisplay:10.37,2013-04-27 08:59:00,
2013-04-27 05:03:00,39.4,27.8,30.25,West,270,0.0,0.0,63,0.00,CLR,,0.00,WeatherDisplay:10.37,2013-04-27 09:03:00,
2013-04-27 05:04:00,39.4,27.8,30.25,WNW,292,0.0,0.0,63,0.00,CLR,,0.00,WeatherDisplay:10.37,2013-04-27 09:04:00,
2013-04-27 05:08:00,39.4,28.2,30.25,West,270,0.0,0.0,64,0.00,CLR,,0.00,WeatherDisplay:10.37,2013-04-27 09:08:00,
2013-04-27 05:09:00,39.4,28.2,30.25,WNW,292,0.0,0.0,64,0.00,CLR,,0.00,WeatherDisplay:10.37,2013-04-27 09:09:00,
2013-04-27 05:10:00,39.4,28.2,30.25,WNW,292,0.0,0.0,64,0.00,CLR,,0.00,WeatherDisplay:10.37,2013-04-27 09:10:00,
2013-04-27 05:13:00,39.2,27.3,30.25,WNW,292,0.0,0.0,62,0.00,CLR,,0.00,WeatherDisplay:10.37,2013-04-27 09:13:00,
2013-04-27 05:14:00,39.2,27.3,30.25,WNW,292,0.0,0.0,62,0.00,CLR,,0.00,WeatherDisplay:10.37,2013-04-27 09:14:00,
2013-04-27 05:15:00,39.2,27.3,30.25,WNW,292,0.0,0.0,62,0.00,CLR,,0.00,WeatherDisplay:10.37,2013-04-27 09:15:00,
2013-04-27 05:18:00,39.2,27.7,30.25,West,270,0.0,0.0,63,0.00,CLR,,0.00,WeatherDisplay:10.37,2013-04-27 09:18:00,
2013-04-27 05:19:00,39.2,27.7,30.25,West,270,0.0,0.0,63,0.00,CLR,,0.00,WeatherDisplay:10.37,2013-04-27 09:19:00,
2013-04-27 05:20:00,39.2,27.7,30.25,West,270,0.0,0.0,63,0.00,CLR,,0.00,WeatherDisplay:10.37,2013-04-27 09:20:00,
2013-04-27 05:23:00,39.2,28.4,30.25,WSW,248,0.0,0.0,65,0.00,CLR,,0.00,WeatherDisplay:10.37,2013-04-27 09:23:00,
2013-04-27 05:24:00,39.2,28.4,30.25,WSW,248,0.0,0.0,65,0.00,CLR,,0.00,WeatherDisplay:10.37,2013-04-27 09:24:00,
2013-04-27 05:25:00,39.2,28.4,30.25,WSW,248,0.0,0.0,65,0.00,CLR,,0.00,WeatherDisplay:10.37,2013-04-27 09:25:00,
2013-04-27 05:29:00,39.2,28.4,30.25,WSW,248,0.0,0.0,65,0.00,CLR,,0.00,WeatherDisplay:10.37,2013-04-27 09:29:00,
2013-04-27 05:30:00,39.2,28.4,30.25,WSW,248,0.0,0.0,65,0.00,CLR,,0.00,WeatherDisplay:10.37,2013-04-27 09:30:00,
2013-04-27 05:34:00,39.2,28.4,30.25,WNW,292,0.0,0.0,65,0.00,CLR,,0.00,WeatherDisplay:10.37,2013-04-27 09:34:00,
2013-04-27 05:35:00,39.2,28.4,30.25,WNW,292,0.0,0.0,65,0.00,CLR,,0.00,WeatherDisplay:10.37,2013-04-27 09:35:00,
2013-04-27 05:36:00,39.2,28.4,30.25,WNW,292,0.0,0.0,65,0.00,CLR,,0.00,WeatherDisplay:10.37,2013-04-27 09:36:00,
2013-04-27 05:39:00,39.2,28.4,30.25,West,270,0.0,0.0,65,0.00,CLR,,0.00,WeatherDisplay:10.37,2013-04-27 09:39:00,
2013-04-27 05:40:00,39.2,28.0,30.25,WSW,248,0.0,0.9,64,0.00,CLR,,0.00,WeatherDisplay:10.37,2013-04-27 09:40:00,
2013-04-27 05:41:00,39.2,28.0,30.25,WSW,248,0.0,0.9,64,0.00,CLR,,0.00,WeatherDisplay:10.37,2013-04-27 09:41:00,
2013-04-27 05:44:00,39.2,28.4,30.25,WSW,248,1.1,1.6,65,0.00,CLR,,0.00,WeatherDisplay:10.37,2013-04-27 09:44:00,
2013-04-27 05:45:00,39.2,28.4,30.25,WSW,248,1.1,1.6,65,0.00,CLR,,0.00,WeatherDisplay:10.37,2013-04-27 09:45:00,
2013-04-27 05:46:00,39.2,28.4,30.25,WSW,248,1.1,1.6,65,0.00,CLR,,0.00,WeatherDisplay:10.37,2013-04-27 09:46:00,
2013-04-27 05:49:00,39.4,29.0,30.25,West,270,0.0,0.9,66,0.00,CLR,,0.00,WeatherDisplay:10.37,2013-04-27 09:49:00,
2013-04-27 05:50:00,39.4,29.0,30.25,WSW,248,2.3,2.3,66,0.00,CLR,,0.00,WeatherDisplay:10.37,2013-04-27 09:50:00,
2013-04-27 05:51:00,39.4,29.0,30.25,WSW,248,0.0,0.9,66,0.00,CLR,,0.00,WeatherDisplay:10.37,2013-04-27 09:51:00,
2013-04-27 05:54:00,39.4,28.6,30.22,WNW,292,1.1,1.1,65,0.00,CLR,,0.00,WeatherDisplay:10.37,2013-04-27 09:54:00,
2013-04-27 05:55:00,39.4,28.6,30.22,WNW,292,1.1,1.1,65,0.00,CLR,,0.00,WeatherDisplay:10.37,2013-04-27 09:55:00,
2013-04-27 05:56:00,39.4,29.0,30.22,WNW,292,2.3,0.0,66,0.00,CLR,,0.00,WeatherDisplay:10.37,2013-04-27 09:56:00,
2013-04-27 05:59:00,39.4,28.6,30.22,WNW,292,3.5,3.5,65,0.00,CLR,,0.00,WeatherDisplay:10.37,2013-04-27 09:59:00,
2013-04-27 06:00:00,39.4,28.6,30.22,WNW,292,0.0,2.2,65,0.00,CLR,,0.00,WeatherDisplay:10.37,2013-04-27 10:00:00,
2013-04-27 06:01:00,39.6,29.1,30.22,West,270,4.3,4.3,66,0.00,CLR,,0.00,WeatherDisplay:10.37,2013-04-27 10:01:00,
2013-04-27 06:05:00,39.6,29.1,30.22,WNW,292,0.0,0.0,66,0.00,CLR,,0.00,WeatherDisplay:10.37,2013-04-27 10:05:00,
2013-04-27 06:06:00,39.6,28.8,30.22,West,270,4.0,0.0,65,0.00,CLR,,0.00,WeatherDisplay:10.37,2013-04-27 10:06:00,
2013-04-27 06:07:00,39.6,28.8,30.22,West,270,4.6,0.0,65,0.00,CLR,,0.00,WeatherDisplay:10.37,2013-04-27 10:07:00,
2013-04-27 06:10:00,39.6,28.8,30.25,WSW,248,2.3,2.3,65,0.00,CLR,,0.00,WeatherDisplay:10.37,2013-04-27 10:10:00,
2013-04-27 06:11:00,39.6,28.8,30.25,NW,315,2.3,0.0,65,0.00,CLR,,0.00,WeatherDisplay:10.37,2013-04-27 10:11:00,
2013-04-27 06:12:00,39.6,28.8,30.25,NW,315,1.6,0.0,65,0.00,CLR,,0.00,WeatherDisplay:10.37,2013-04-27 10:12:00,
2013-04-27 06:15:00,39.6,28.8,30.25,WSW,248,2.9,2.9,65,0.00,CLR,,0.00,WeatherDisplay:10.37,2013-04-27 10:15:00,
2013-04-27 06:16:00,39.6,29.1,30.25,WSW,248,2.9,2.9,66,0.00,CLR,,0.00,WeatherDisplay:10.37,2013-04-27 10:16:00,
2013-04-27 06:17:00,39.6,28.8,30.25,WSW,248,2.9,2.9,65,0.00,CLR,,0.00,WeatherDisplay:10.37,2013-04-27 10:17:00,
2013-04-27 06:18:00,39.6,28.8,30.25,WSW,248,2.9,2.9,65,0.00,CLR,,0.00,WeatherDisplay:10.37,2013-04-27 10:18:00,
2013-04-27 06:20:00,39.6,28.8,30.25,West,270,1.1,0.0,65,0.00,CLR,,0.00,WeatherDisplay:10.37,2013-04-27 10:20:00,
2013-04-27 06:21:00,39.6,28.8,30.25,West,270,0.0,0.0,65,0.00,CLR,,0.00,WeatherDisplay:10.37,2013-04-27 10:21:00,
2013-04-27 06:22:00,39.6,28.8,30.25,WSW,248,0.0,0.0,65,0.00,CLR,,0.00,WeatherDisplay:10.37,2013-04-27 10:22:00,
2013-04-27 06:23:00,39.6,28.8,30.25,SSW,202,0.0,0.0,65,0.00,CLR,,0.00,WeatherDisplay:10.37,2013-04-27 10:23:00,
2013-04-27 06:25:00,39.6,28.8,30.25,West,270,6.0,0.0,65,0.00,CLR,,0.00,WeatherDisplay:10.37,2013-04-27 10:25:00,
2013-04-27 06:26:00,39.7,29.3,30.25,West,270,6.9,6.9,66,0.00,CLR,,0.00,WeatherDisplay:10.37,2013-04-27 10:26:00,
2013-04-27 06:28:00,39.7,29.3,30.25,WSW,248,2.3,2.3,66,0.00,CLR,,0.00,WeatherDisplay:10.37,2013-04-27 10:28:00,
2013-04-27 06:30:00,39.9,29.5,30.25,WSW,248,2.3,0.0,66,0.00,CLR,,0.00,WeatherDisplay:10.37,2013-04-27 10:30:00,
2013-04-27 06:31:00,39.9,29.5,30.25,WNW,292,3.5,3.5,66,0.00,CLR,,0.00,WeatherDisplay:10.37,2013-04-27 10:31:00,
2013-04-27 06:32:00,39.9,29.5,30.25,WNW,292,2.3,0.0,66,0.00,CLR,,0.00,WeatherDisplay:10.37,2013-04-27 10:32:00,
2013-04-27 06:33:00,40.1,29.6,30.25,WNW,292,0.0,0.0,66,0.00,CLR,,0.00,WeatherDisplay:10.37,2013-04-27 10:33:00,
2013-04-27 06:35:00,40.3,29.8,30.25,WSW,248,2.3,2.3,66,0.00,CLR,,0.00,WeatherDisplay:10.37,2013-04-27 10:35:00,
2013-04-27 06:36:00,40.3,29.8,30.25,West,270,0.0,0.9,66,0.00,CLR,,0.00,WeatherDisplay:10.37,2013-04-27 10:36:00,
2013-04-27 06:37:00,40.3,29.8,30.25,West,270,1.4,1.4,66,0.00,CLR,,0.00,WeatherDisplay:10.37,2013-04-27 10:37:00,
2013-04-27 06:38:00,40.5,30.0,30.25,West,270,1.4,1.4,66,0.00,CLR,,0.00,WeatherDisplay:10.37,2013-04-27 10:38:00,
2013-04-27 06:40:00,40.5,29.6,30.25,WNW,292,4.6,4.6,65,0.00,CLR,,0.00,WeatherDisplay:10.37,2013-04-27 10:40:00,
2013-04-27 06:42:00,40.5,29.6,30.25,WNW,292,4.6,4.6,65,0.00,CLR,,0.00,WeatherDisplay:10.37,2013-04-27 10:42:00,
2013-04-27 06:43:00,40.5,29.6,30.25,West,270,3.3,3.3,65,0.00,CLR,,0.00,WeatherDisplay:10.37,2013-04-27 10:43:00,
2013-04-27 06:46:00,40.6,29.8,30.25,West,270,1.1,2.2,65,0.00,CLR,,0.00,WeatherDisplay:10.37,2013-04-27 10:46:00,
2013-04-27 06:47:00,40.6,29.8,30.25,WNW,292,2.9,2.9,65,0.00,CLR,,0.00,WeatherDisplay:10.37,2013-04-27 10:47:00,
2013-04-27 06:48:00,40.6,29.8,30.25,WNW,292,2.9,2.9,65,0.00,CLR,,0.00,WeatherDisplay:10.37,2013-04-27 10:48:00,
2013-04-27 06:49:00,40.6,29.8,30.25,WNW,292,2.9,2.9,65,0.00,CLR,,0.00,WeatherDisplay:10.37,2013-04-27 10:49:00,
2013-04-27 06:51:00,40.6,29.4,30.25,WSW,248,8.1,8.1,64,0.00,CLR,,0.00,WeatherDisplay:10.37,2013-04-27 10:51:00,
2013-04-27 06:53:00,40.6,29.4,30.25,SW,225,3.5,3.5,64,0.00,CLR,,0.00,WeatherDisplay:10.37,2013-04-27 10:53:00,
2013-04-27 06:54:00,40.8,29.6,30.25,West,270,3.5,3.5,64,0.00,CLR,,0.00,WeatherDisplay:10.37,2013-04-27 10:54:00,
2013-04-27 06:56:00,41.0,29.7,30.25,WNW,292,4.3,4.3,64,0.00,CLR,,0.00,WeatherDisplay:10.37,2013-04-27 10:56:00,
2013-04-27 06:58:00,41.0,29.4,30.25,WNW,292,4.6,4.6,63,0.00,CLR,,0.00,WeatherDisplay:10.37,2013-04-27 10:58:00,
2013-04-27 06:59:00,41.0,29.4,30.25,West,270,5.9,5.9,63,0.00,CLR,,0.00,WeatherDisplay:10.37,2013-04-27 10:59:00,
2013-04-27 07:01:00,41.0,29.4,30.25,West,270,5.9,5.9,63,0.00,CLR,,0.00,WeatherDisplay:10.37,2013-04-27 11:01:00,
2013-04-27 07:03:00,41.0,29.4,30.25,West,270,5.9,5.9,63,0.00,CLR,,0.00,WeatherDisplay:10.37,2013-04-27 11:03:00,
2013-04-27 07:04:00,41.0,29.4,30.25,WNW,292,5.8,5.8,63,0.00,CLR,,0.00,WeatherDisplay:10.37,2013-04-27 11:04:00,
2013-04-27 07:05:00,41.0,29.4,30.25,WNW,292,3.6,3.6,63,0.00,CLR,,0.00,WeatherDisplay:10.37,2013-04-27 11:05:00,
2013-04-27 07:07:00,41.0,29.4,30.25,West,270,3.5,3.5,63,0.00,CLR,,0.00,WeatherDisplay:10.37,2013-04-27 11:07:00,
2013-04-27 07:08:00,41.0,29.0,30.25,WNW,292,2.3,2.3,62,0.00,CLR,,0.00,WeatherDisplay:10.37,2013-04-27 11:08:00,
2013-04-27 07:09:00,41.0,29.0,30.25,West,270,1.1,0.0,62,0.00,CLR,,0.00,WeatherDisplay:10.37,2013-04-27 11:09:00,
2013-04-27 07:10:00,41.0,29.0,30.25,WSW,248,1.1,1.6,62,0.00,CLR,,0.00,WeatherDisplay:10.37,2013-04-27 11:10:00,
2013-04-27 07:12:00,41.0,29.0,30.25,WSW,248,1.1,1.4,62,0.00,CLR,,0.00,WeatherDisplay:10.37,2013-04-27 11:12:00,
2013-04-27 07:14:00,41.2,29.1,30.25,WNW,292,6.7,6.7,62,0.00,CLR,,0.00,WeatherDisplay:10.37,2013-04-27 11:14:00,
2013-04-27 07:15:00,41.2,29.1,30.25,WNW,292,6.9,6.9,62,0.00,CLR,,0.00,WeatherDisplay:10.37,2013-04-27 11:15:00,
2013-04-27 07:17:00,41.4,29.3,30.25,SSW,202,6.9,6.9,62,0.00,CLR,,0.00,WeatherDisplay:10.37,2013-04-27 11:17:00,
2013-04-27 07:19:00,41.4,29.3,30.25,WNW,292,3.5,3.5,62,0.00,CLR,,0.00,WeatherDisplay:10.37,2013-04-27 11:19:00,
2013-04-27 07:20:00,41.5,29.5,30.25,West,270,3.5,3.5,62,0.00,CLR,,0.00,WeatherDisplay:10.37,2013-04-27 11:20:00,
2013-04-27 07:21:00,41.5,29.5,30.25,West,270,2.6,2.9,62,0.00,CLR,,0.00,WeatherDisplay:10.37,2013-04-27 11:21:00,
2013-04-27 07:22:00,41.5,29.5,30.25,WSW,248,5.8,5.8,62,0.00,CLR,,0.00,WeatherDisplay:10.37,2013-04-27 11:22:00,
2013-04-27 07:24:00,41.7,29.6,30.25,WNW,292,2.0,2.0,62,0.00,CLR,,0.00,WeatherDisplay:10.37,2013-04-27 11:24:00,
2013-04-27 07:25:00,41.7,29.6,30.25,West,270,2.4,2.6,62,0.00,CLR,,0.00,WeatherDisplay:10.37,2013-04-27 11:25:00,
2013-04-27 07:26:00,41.9,29.4,30.25,WSW,248,2.3,2.3,61,0.00,CLR,,0.00,WeatherDisplay:10.37,2013-04-27 11:26:00,
2013-04-27 07:27:00,41.9,29.8,30.25,WSW,248,2.3,2.3,62,0.00,CLR,,0.00,WeatherDisplay:10.37,2013-04-27 11:27:00,
2013-04-27 07:29:00,42.1,29.6,30.25,West,270,0.0,1.1,61,0.00,CLR,,0.00,WeatherDisplay:10.37,2013-04-27 11:29:00,
2013-04-27 07:30:00,42.1,29.6,30.25,West,270,0.0,1.1,61,0.00,CLR,,0.00,WeatherDisplay:10.37,2013-04-27 11:30:00,
2013-04-27 07:32:00,42.1,29.2,30.25,West,270,7.4,7.4,60,0.00,CLR,,0.00,WeatherDisplay:10.37,2013-04-27 11:32:00,
2013-04-27 07:34:00,42.3,29.4,30.25,WNW,292,2.3,4.0,60,0.00,CLR,,0.00,WeatherDisplay:10.37,2013-04-27 11:34:00,
2013-04-27 07:35:00,42.4,29.5,30.25,WNW,292,2.2,2.9,60,0.00,CLR,,0.00,WeatherDisplay:10.37,2013-04-27 11:35:00,
2013-04-27 07:37:00,42.4,29.5,30.25,WNW,292,5.8,5.8,60,0.00,CLR,,0.00,WeatherDisplay:10.37,2013-04-27 11:37:00,
2013-04-27 07:38:00,42.6,29.7,30.28,WNW,292,2.3,2.3,60,0.00,CLR,,0.00,WeatherDisplay:10.37,2013-04-27 11:38:00,
2013-04-27 07:39:00,42.6,29.7,30.28,WNW,292,5.4,5.4,60,0.00,CLR,,0.00,WeatherDisplay:10.37,2013-04-27 11:39:00,
2013-04-27 07:40:00,42.6,29.3,30.28,WNW,292,5.8,5.8,59,0.00,CLR,,0.00,WeatherDisplay:10.37,2013-04-27 11:40:00,
2013-04-27 07:42:00,42.8,29.0,30.28,SW,225,5.8,5.8,58,0.00,CLR,,0.00,WeatherDisplay:10.37,2013-04-27 11:42:00,
2013-04-27 07:44:00,42.8,29.0,30.28,WNW,292,5.8,5.8,58,0.00,CLR,,0.00,WeatherDisplay:10.37,2013-04-27 11:44:00,
2013-04-27 07:45:00,43.0,29.2,30.28,WNW,292,6.2,6.2,58,0.00,CLR,,0.00,WeatherDisplay:10.37,2013-04-27 11:45:00,
2013-04-27 07:46:00,43.0,29.2,30.28,WNW,292,6.2,6.2,58,0.00,CLR,,0.00,WeatherDisplay:10.37,2013-04-27 11:46:00,
2013-04-27 07:48:00,43.0,28.8,30.28,West,270,8.1,8.1,57,0.00,CLR,,0.00,WeatherDisplay:10.37,2013-04-27 11:48:00,
2013-04-27 07:49:00,43.2,28.9,30.28,WSW,248,4.6,4.6,57,0.00,CLR,,0.00,WeatherDisplay:10.37,2013-04-27 11:49:00,
2013-04-27 07:50:00,43.2,28.9,30.28,West,270,3.5,3.5,57,0.00,CLR,,0.00,WeatherDisplay:10.37,2013-04-27 11:50:00,
2013-04-27 07:51:00,43.3,29.1,30.28,West,270,6.9,6.9,57,0.00,CLR,,0.00,WeatherDisplay:10.37,2013-04-27 11:51:00,
2013-04-27 07:52:00,43.3,29.1,30.28,WNW,292,8.5,8.5,57,0.00,CLR,,0.00,WeatherDisplay:10.37,2013-04-27 11:52:00,
2013-04-27 07:53:00,43.5,29.3,30.28,WNW,292,0.0,6.7,57,0.00,CLR,,0.00,WeatherDisplay:10.37,2013-04-27 11:53:00,
2013-04-27 07:54:00,43.5,29.3,30.28,West,270,1.1,1.1,57,0.00,CLR,,0.00,WeatherDisplay:10.37,2013-04-27 11:54:00,
2013-04-27 07:55:00,43.5,29.3,30.28,WSW,248,3.5,3.5,57,0.00,CLR,,0.00,WeatherDisplay:10.37,2013-04-27 11:55:00,
2013-04-27 07:56:00,43.7,29.5,30.28,WNW,292,3.5,0.0,57,0.00,CLR,,0.00,WeatherDisplay:10.37,2013-04-27 11:56:00,
2013-04-27 07:57:00,43.7,29.5,30.28,WNW,292,2.3,0.0,57,0.00,CLR,,0.00,WeatherDisplay:10.37,2013-04-27 11:57:00,
2013-04-27 07:58:00,43.9,29.2,30.28,WNW,292,4.9,4.9,56,0.00,CLR,,0.00,WeatherDisplay:10.37,2013-04-27 11:58:00,
2013-04-27 07:59:00,43.9,29.2,30.28,WNW,292,4.9,4.9,56,0.00,CLR,,0.00,WeatherDisplay:10.37,2013-04-27 11:59:00,
2013-04-27 08:00:00,43.9,29.2,30.28,WNW,292,4.9,4.9,56,0.00,CLR,,0.00,WeatherDisplay:10.37,2013-04-27 12:00:00,
2013-04-27 08:01:00,43.9,29.2,30.28,WNW,292,4.6,4.6,56,0.00,CLR,,0.00,WeatherDisplay:10.37,2013-04-27 12:01:00,
2013-04-27 08:02:00,43.9,29.2,30.28,WNW,292,2.3,2.4,56,0.00,CLR,,0.00,WeatherDisplay:10.37,2013-04-27 12:02:00,
2013-04-27 08:04:00,44.4,29.2,30.28,West,270,2.3,2.3,55,0.00,CLR,,0.00,WeatherDisplay:10.37,2013-04-27 12:04:00,
2013-04-27 08:05:00,44.6,29.4,30.28,SW,225,3.5,3.5,55,0.00,CLR,,0.00,WeatherDisplay:10.37,2013-04-27 12:05:00,
2013-04-27 08:06:00,44.8,29.6,30.28,WNW,292,3.5,0.0,55,0.00,CLR,,0.00,WeatherDisplay:10.37,2013-04-27 12:06:00,
2013-04-27 08:07:00,44.8,29.1,30.28,SSW,202,8.1,8.1,54,0.00,CLR,,0.00,WeatherDisplay:10.37,2013-04-27 12:07:00,
2013-04-27 08:09:00,45.0,28.8,30.28,WNW,292,4.6,4.6,53,0.00,CLR,,0.00,WeatherDisplay:10.37,2013-04-27 12:09:00,
2013-04-27 08:10:00,45.1,29.0,30.28,WNW,292,5.6,5.6,53,0.00,CLR,,0.00,WeatherDisplay:10.37,2013-04-27 12:10:00,
2013-04-27 08:11:00,45.1,28.5,30.28,West,270,9.2,9.2,52,0.00,CLR,,0.00,WeatherDisplay:10.37,2013-04-27 12:11:00,
2013-04-27 08:13:00,45.1,28.5,30.28,WNW,292,9.2,9.2,52,0.00,CLR,,0.00,WeatherDisplay:10.37,2013-04-27 12:13:00,
2013-04-27 08:14:00,45.5,28.9,30.28,NW,315,5.8,5.8,52,0.00,CLR,,0.00,WeatherDisplay:10.37,2013-04-27 12:14:00,
2013-04-27 08:15:00,45.7,29.0,30.28,WNW,292,6.9,6.9,52,0.00,CLR,,0.00,WeatherDisplay:10.37,2013-04-27 12:15:00,
2013-04-27 08:17:00,45.9,29.2,30.28,WSW,248,5.8,5.8,52,0.00,CLR,,0.00,WeatherDisplay:10.37,2013-04-27 12:17:00,
2013-04-27 08:18:00,45.9,29.2,30.28,WSW,248,4.6,4.6,52,0.00,CLR,,0.00,WeatherDisplay:10.37,2013-04-27 12:18:00,
2013-04-27 08:19:00,45.9,28.7,30.28,WNW,292,4.6,4.6,51,0.00,CLR,,0.00,WeatherDisplay:10.37,2013-04-27 12:19:00,
2013-04-27 08:20:00,46.0,28.9,30.28,West,270,2.4,3.1,51,0.00,CLR,,0.00,WeatherDisplay:10.37,2013-04-27 12:20:00,
2013-04-27 08:22:00,46.2,28.6,30.28,WNW,292,5.4,5.4,50,0.00,CLR,,0.00,WeatherDisplay:10.37,2013-04-27 12:22:00,
2013-04-27 08:23:00,46.2,28.6,30.28,SSW,202,9.2,9.2,50,0.00,CLR,,0.00,WeatherDisplay:10.37,2013-04-27 12:23:00,
2013-04-27 08:24:00,46.4,28.8,30.28,West,270,9.2,9.2,50,0.00,CLR,,0.00,WeatherDisplay:10.37,2013-04-27 12:24:00,
2013-04-27 08:25:00,46.4,28.8,30.28,WNW,292,6.0,6.0,50,0.00,CLR,,0.00,WeatherDisplay:10.37,2013-04-27 12:25:00,
2013-04-27 08:26:00,46.6,28.4,30.28,WNW,292,5.8,5.8,49,0.00,CLR,,0.00,WeatherDisplay:10.37,2013-04-27 12:26:00,
2013-04-27 08:27:00,46.8,28.6,30.28,WNW,292,5.8,5.8,49,0.00,CLR,,0.00,WeatherDisplay:10.37,2013-04-27 12:27:00,
2013-04-27 08:28:00,46.8,28.6,30.28,West,270,9.2,9.2,49,0.00,CLR,,0.00,WeatherDisplay:10.37,2013-04-27 12:28:00,
2013-04-27 08:29:00,47.1,29.4,30.28,WNW,292,3.6,0.0,50,0.00,CLR,,0.00,WeatherDisplay:10.37,2013-04-27 12:29:00,
2013-04-27 08:30:00,47.3,29.6,30.28,West,270,3.5,0.0,50,0.00,CLR,,0.00,WeatherDisplay:10.37,2013-04-27 12:30:00,
2013-04-27 08:31:00,47.5,29.7,30.28,West,270,3.5,0.0,50,0.00,CLR,,0.00,WeatherDisplay:10.37,2013-04-27 12:31:00,
2013-04-27 08:32:00,47.7,29.4,30.28,South,180,4.6,4.6,49,0.00,CLR,,0.00,WeatherDisplay:10.37,2013-04-27 12:32:00,
2013-04-27 08:33:00,48.2,29.4,30.28,WNW,292,4.6,4.6,48,0.00,CLR,,0.00,WeatherDisplay:10.37,2013-04-27 12:33:00,
2013-04-27 08:35:00,48.4,29.1,30.28,WNW,292,6.9,6.9,47,0.00,CLR,,0.00,WeatherDisplay:10.37,2013-04-27 12:35:00,
2013-04-27 08:36:00,48.7,28.9,30.28,West,270,8.1,8.1,46,0.00,CLR,,0.00,WeatherDisplay:10.37,2013-04-27 12:36:00,
2013-04-27 08:37:00,48.7,28.9,30.28,West,270,8.1,8.1,46,0.00,CLR,,0.00,WeatherDisplay:10.37,2013-04-27 12:37:00,
2013-04-27 08:38:00,49.1,28.1,30.25,NNW,338,9.2,9.2,44,0.00,CLR,,0.00,WeatherDisplay:10.37,2013-04-27 12:38:00,
2013-04-27 08:40:00,49.3,28.8,30.25,WNW,292,6.0,6.0,45,0.00,CLR,,0.00,WeatherDisplay:10.37,2013-04-27 12:40:00,
2013-04-27 08:41:00,49.8,28.8,30.25,West,270,5.8,5.8,44,0.00,CLR,,0.00,WeatherDisplay:10.37,2013-04-27 12:41:00,
2013-04-27 08:42:00,49.8,28.8,30.25,West,270,4.6,4.6,44,0.00,CLR,,0.00,WeatherDisplay:10.37,2013-04-27 12:42:00,
2013-04-27 08:44:00,50.0,27.8,30.25,NNW,338,5.8,5.8,42,0.00,CLR,,0.00,WeatherDisplay:10.37,2013-04-27 12:44:00,
2013-04-27 08:45:00,50.0,28.4,30.25,SW,225,4.6,4.6,43,0.00,CLR,,0.00,WeatherDisplay:10.37,2013-04-27 12:45:00,
2013-04-27 08:46:00,50.0,28.4,30.25,West,270,4.6,4.6,43,0.00,CLR,,0.00,WeatherDisplay:10.37,2013-04-27 12:46:00,
2013-04-27 08:47:00,50.2,29.1,30.25,WNW,292,4.6,0.0,44,0.00,CLR,,0.00,WeatherDisplay:10.37,2013-04-27 12:47:00,
2013-04-27 08:49:00,50.0,27.8,30.25,West,270,5.8,5.8,42,0.00,CLR,,0.00,WeatherDisplay:10.37,2013-04-27 12:49:00,
2013-04-27 08:50:00,50.0,27.8,30.25,NNW,338,3.6,3.6,42,0.00,CLR,,0.00,WeatherDisplay:10.37,2013-04-27 12:50:00,
2013-04-27 08:51:00,49.8,27.6,30.25,WNW,292,4.6,4.6,42,0.00,CLR,,0.00,WeatherDisplay:10.37,2013-04-27 12:51:00,
2013-04-27 08:52:00,49.8,27.6,30.25,WNW,292,3.5,0.0,42,0.00,CLR,,0.00,WeatherDisplay:10.37,2013-04-27 12:52:00,
2013-04-27 08:53:00,49.8,27.0,30.25,WNW,292,5.8,5.8,41,0.00,CLR,,0.00,WeatherDisplay:10.37,2013-04-27 12:53:00,
2013-04-27 08:54:00,49.8,27.0,30.28,WNW,292,5.8,5.8,41,0.00,CLR,,0.00,WeatherDisplay:10.37,2013-04-27 12:54:00,
2013-04-27 08:56:00,49.8,27.0,30.28,NW,315,5.9,5.9,41,0.00,CLR,,0.00,WeatherDisplay:10.37,2013-04-27 12:56:00,
2013-04-27 08:57:00,50.0,27.2,30.28,WSW,248,5.8,5.8,41,0.00,CLR,,0.00,WeatherDisplay:10.37,2013-04-27 12:57:00,
2013-04-27 08:58:00,50.4,27.5,30.28,WSW,248,4.7,4.7,41,0.00,CLR,,0.00,WeatherDisplay:10.37,2013-04-27 12:58:00,
2013-04-27 08:59:00,50.4,27.5,30.28,WNW,292,4.6,4.6,41,0.00,CLR,,0.00,WeatherDisplay:10.37,2013-04-27 12:59:00,
2013-04-27 09:01:00,51.1,28.2,30.28,WNW,292,5.4,5.4,41,0.00,CLR,,0.00,WeatherDisplay:10.37,2013-04-27 13:01:00,
2013-04-27 09:02:00,51.1,28.2,30.28,West,270,6.9,6.9,41,0.00,CLR,,0.00,WeatherDisplay:10.37,2013-04-27 13:02:00,
2013-04-27 09:03:00,51.1,28.2,30.28,WSW,248,5.8,5.8,41,0.00,CLR,,0.00,WeatherDisplay:10.37,2013-04-27 13:03:00,
2013-04-27 09:04:00,51.1,28.2,30.28,WNW,292,5.9,5.9,41,0.00,CLR,,0.00,WeatherDisplay:10.37,2013-04-27 13:04:00,
2013-04-27 09:06:00,51.3,27.1,30.28,WNW,292,6.0,6.0,39,0.00,CLR,,0.00,WeatherDisplay:10.37,2013-04-27 13:06:00,
2013-04-27 09:07:00,52.0,27.8,30.28,WNW,292,5.8,5.8,39,0.00,CLR,,0.00,WeatherDisplay:10.37,2013-04-27 13:07:00,
2013-04-27 09:08:00,52.0,27.8,30.28,WNW,292,4.6,4.6,39,0.00,CLR,,0.00,WeatherDisplay:10.37,2013-04-27 13:08:00,
2013-04-27 09:10:00,52.0,27.8,30.28,WNW,292,3.5,3.5,39,0.00,CLR,,0.00,WeatherDisplay:10.37,2013-04-27 13:10:00,
2013-04-27 09:11:00,52.0,27.1,30.28,West,270,6.9,6.9,38,0.00,CLR,,0.00,WeatherDisplay:10.37,2013-04-27 13:11:00,
2013-04-27 09:12:00,51.8,27.0,30.28,WSW,248,6.9,6.9,38,0.00,CLR,,0.00,WeatherDisplay:10.37,2013-04-27 13:12:00,
2013-04-27 09:14:00,51.8,27.0,30.28,NNW,338,6.9,6.9,38,0.00,CLR,,0.00,WeatherDisplay:10.37,2013-04-27 13:14:00,
2013-04-27 09:15:00,52.2,27.3,30.28,WNW,292,5.8,5.8,38,0.00,CLR,,0.00,WeatherDisplay:10.37,2013-04-27 13:15:00,
2013-04-27 09:16:00,52.2,27.3,30.28,WSW,248,4.0,4.0,38,0.00,CLR,,0.00,WeatherDisplay:10.37,2013-04-27 13:16:00,
2013-04-27 09:17:00,52.2,27.3,30.28,WNW,292,4.6,4.6,38,0.00,CLR,,0.00,WeatherDisplay:10.37,2013-04-27 13:17:00,
2013-04-27 09:20:00,52.7,27.8,30.28,WSW,248,6.9,6.9,38,0.00,CLR,,0.00,WeatherDisplay:10.37,2013-04-27 13:20:00,
2013-04-27 09:21:00,52.9,27.9,30.28,West,270,6.9,6.9,38,0.00,CLR,,0.00,WeatherDisplay:10.37,2013-04-27 13:21:00,
2013-04-27 09:22:00,52.9,27.3,30.28,West,270,6.4,6.4,37,0.00,CLR,,0.00,WeatherDisplay:10.37,2013-04-27 13:22:00,
2013-04-27 09:25:00,52.9,27.3,30.25,NW,315,6.9,6.9,37,0.00,CLR,,0.00,WeatherDisplay:10.37,2013-04-27 13:25:00,
2013-04-27 09:26:00,52.9,27.3,30.25,WNW,292,4.6,4.6,37,0.00,CLR,,0.00,WeatherDisplay:10.37,2013-04-27 13:26:00,
2013-04-27 09:27:00,52.9,27.3,30.25,WNW,292,4.6,4.6,37,0.00,CLR,,0.00,WeatherDisplay:10.37,2013-04-27 13:27:00,
2013-04-27 09:28:00,52.9,27.3,30.25,WSW,248,0.0,0.0,37,0.00,CLR,,0.00,WeatherDisplay:10.37,2013-04-27 13:28:00,
2013-04-27 09:30:00,54.1,28.4,30.25,WSW,248,5.8,5.8,37,0.00,CLR,,0.00,WeatherDisplay:10.37,2013-04-27 13:30:00,
2013-04-27 09:32:00,54.3,28.6,30.25,NW,315,3.6,3.6,37,0.00,CLR,,0.00,WeatherDisplay:10.37,2013-04-27 13:32:00,
2013-04-27 09:33:00,54.5,28.1,30.25,WNW,292,4.6,4.6,36,0.00,CLR,,0.00,WeatherDisplay:10.37,2013-04-27 13:33:00,
2013-04-27 09:36:00,54.5,28.1,30.25,WNW,292,6.9,6.9,36,0.00,CLR,,0.00,WeatherDisplay:10.37,2013-04-27 13:36:00,
2013-04-27 09:37:00,54.3,27.9,30.25,WNW,292,6.9,6.9,36,0.00,CLR,,0.00,WeatherDisplay:10.37,2013-04-27 13:37:00,
2013-04-27 09:38:00,54.5,28.1,30.25,WNW,292,5.8,5.8,36,0.00,CLR,,0.00,WeatherDisplay:10.37,2013-04-27 13:38:00,
2013-04-27 09:41:00,54.7,28.2,30.25,WSW,248,3.5,3.5,36,0.00,CLR,,0.00,WeatherDisplay:10.37,2013-04-27 13:41:00,
2013-04-27 09:43:00,54.9,28.4,30.25,WNW,292,6.0,6.0,36,0.00,CLR,,0.00,WeatherDisplay:10.37,2013-04-27 13:43:00,
2013-04-27 09:44:00,54.9,28.4,30.25,WNW,292,5.8,5.8,36,0.00,CLR,,0.00,WeatherDisplay:10.37,2013-04-27 13:44:00,
2013-04-27 09:48:00,55.6,29.0,30.25,WNW,292,4.3,4.3,36,0.00,CLR,,0.00,WeatherDisplay:10.37,2013-04-27 13:48:00,
2013-04-27 09:49:00,55.8,28.5,30.25,WNW,292,4.6,4.6,35,0.00,CLR,,0.00,WeatherDisplay:10.37,2013-04-27 13:49:00,
2013-04-27 09:50:00,55.9,28.7,30.25,West,270,5.8,5.8,35,0.00,CLR,,0.00,WeatherDisplay:10.37,2013-04-27 13:50:00,
2013-04-27 09:53:00,56.3,29.0,30.25,WSW,248,2.3,5.9,35,0.00,CLR,,0.00,WeatherDisplay:10.37,2013-04-27 13:53:00,
2013-04-27 09:54:00,56.5,29.1,30.25,WSW,248,2.3,5.9,35,0.00,CLR,,0.00,WeatherDisplay:10.37,2013-04-27 13:54:00,
2013-04-27 09:55:00,56.5,29.1,30.25,WSW,248,2.3,5.9,35,0.00,CLR,,0.00,WeatherDisplay:10.37,2013-04-27 13:55:00,
2013-04-27 09:58:00,56.8,28.7,30.25,WNW,292,2.3,0.0,34,0.00,CLR,,0.00,WeatherDisplay:10.37,2013-04-27 13:58:00,
2013-04-27 09:59:00,56.8,28.7,30.25,NW,315,4.7,4.7,34,0.00,CLR,,0.00,WeatherDisplay:10.37,2013-04-27 13:59:00,
2013-04-27 10:00:00,56.8,28.7,30.25,NW,315,4.7,4.7,34,0.00,CLR,,0.00,WeatherDisplay:10.37,2013-04-27 14:00:00,
2013-04-27 10:03:00,57.2,26.8,30.25,NW,315,4.7,4.7,31,0.00,CLR,,0.00,WeatherDisplay:10.37,2013-04-27 14:03:00,
2013-04-27 10:04:00,57.4,27.0,30.25,NW,315,4.7,4.7,31,0.00,CLR,,0.00,WeatherDisplay:10.37,2013-04-27 14:04:00,
2013-04-27 10:05:00,57.4,27.0,30.25,NW,315,4.7,4.7,31,0.00,CLR,,0.00,WeatherDisplay:10.37,2013-04-27 14:05:00,
2013-04-27 10:06:00,57.4,27.0,30.25,NW,315,4.7,4.7,31,0.00,CLR,,0.00,WeatherDisplay:10.37,2013-04-27 14:06:00,
2013-04-27 10:09:00,57.9,28.2,30.25,WNW,292,4.6,4.6,32,0.00,CLR,,0.00,WeatherDisplay:10.37,2013-04-27 14:09:00,
2013-04-27 10:10:00,57.9,27.4,30.25,West,270,3.5,3.5,31,0.00,CLR,,0.00,WeatherDisplay:10.37,2013-04-27 14:10:00,
2013-04-27 10:11:00,57.9,27.4,30.25,West,270,2.3,3.1,31,0.00,CLR,,0.00,WeatherDisplay:10.37,2013-04-27 14:11:00,
2013-04-27 10:14:00,58.1,27.6,30.25,West,270,2.3,2.3,31,0.00,CLR,,0.00,WeatherDisplay:10.37,2013-04-27 14:14:00,
2013-04-27 10:15:00,58.3,27.7,30.25,West,270,0.0,1.1,31,0.00,CLR,,0.00,WeatherDisplay:10.37,2013-04-27 14:15:00,
2013-04-27 10:16:00,58.5,27.1,30.25,WNW,292,3.1,0.0,30,0.00,CLR,,0.00,WeatherDisplay:10.37,2013-04-27 14:16:00,
2013-04-27 10:19:00,58.8,28.2,30.25,SSW,202,3.5,3.5,31,0.00,CLR,,0.00,WeatherDisplay:10.37,2013-04-27 14:19:00,
2013-04-27 10:20:00,58.8,27.4,30.25,SSW,202,1.4,2.2,30,0.00,CLR,,0.00,WeatherDisplay:10.37,2013-04-27 14:20:00,
2013-04-27 10:22:00,59.2,26.1,30.25,SSW,202,1.4,2.2,28,0.00,CLR,,0.00,WeatherDisplay:10.37,2013-04-27 14:22:00,
2013-04-27 10:24:00,59.4,26.2,30.25,West,270,1.1,0.0,28,0.00,CLR,,0.00,WeatherDisplay:10.37,2013-04-27 14:24:00,
2013-04-27 10:25:00,59.5,27.2,30.25,WSW,248,1.1,1.1,29,0.00,CLR,,0.00,WeatherDisplay:10.37,2013-04-27 14:25:00,
2013-04-27 10:26:00,59.5,27.2,30.25,SW,225,1.6,0.0,29,0.00,CLR,,0.00,WeatherDisplay:10.37,2013-04-27 14:26:00,
2013-04-27 10:27:00,59.9,26.7,30.25,WSW,248,1.1,0.0,28,0.00,CLR,,0.00,WeatherDisplay:10.37,2013-04-27 14:27:00,
2013-04-27 10:29:00,60.1,26.8,30.25,WSW,248,1.1,0.0,28,0.00,CLR,,0.00,WeatherDisplay:10.37,2013-04-27 14:29:00,
2013-04-27 10:30:00,60.1,26.0,30.25,WSW,248,1.1,0.0,27,0.00,CLR,,0.00,WeatherDisplay:10.37,2013-04-27 14:30:00,
2013-04-27 10:31:00,60.1,26.0,30.25,NW,315,2.4,2.4,27,0.00,CLR,,0.00,WeatherDisplay:10.37,2013-04-27 14:31:00,
2013-04-27 10:33:00,60.3,27.0,30.25,NW,315,2.4,2.4,28,0.00,CLR,,0.00,WeatherDisplay:10.37,2013-04-27 14:33:00,
2013-04-27 10:34:00,60.4,27.1,30.25,NNW,338,2.3,2.3,28,0.00,CLR,,0.00,WeatherDisplay:10.37,2013-04-27 14:34:00,
2013-04-27 10:35:00,60.6,27.3,30.25,NNW,338,2.3,2.3,28,0.00,CLR,,0.00,WeatherDisplay:10.37,2013-04-27 14:35:00,
2013-04-27 10:36:00,60.8,26.6,30.25,NNW,338,1.1,1.1,27,0.00,CLR,,0.00,WeatherDisplay:10.37,2013-04-27 14:36:00,
2013-04-27 10:37:00,61.0,26.7,30.25,NNW,338,1.1,1.1,27,0.00,CLR,,0.00,WeatherDisplay:10.37,2013-04-27 14:37:00,
2013-04-27 10:38:00,61.0,26.7,30.25,WNW,292,1.1,1.4,27,0.00,CLR,,0.00,WeatherDisplay:10.37,2013-04-27 14:38:00,
2013-04-27 10:39:00,61.2,25.0,30.25,WNW,292,5.8,5.8,25,0.00,CLR,,0.00,WeatherDisplay:10.37,2013-04-27 14:39:00,
2013-04-27 10:41:00,61.2,25.0,30.25,NW,315,2.3,2.6,25,0.00,CLR,,0.00,WeatherDisplay:10.37,2013-04-27 14:41:00,
2013-04-27 10:42:00,61.3,26.1,30.25,ESE,112,0.0,0.0,26,0.00,CLR,,0.00,WeatherDisplay:10.37,2013-04-27 14:42:00,
2013-04-27 10:43:00,61.3,26.1,30.25,WNW,292,0.0,0.0,26,0.00,CLR,,0.00,WeatherDisplay:10.37,2013-04-27 14:43:00,
2013-04-27 10:44:00,61.7,26.4,30.25,East,90,0.0,0.0,26,0.00,CLR,,0.00,WeatherDisplay:10.37,2013-04-27 14:44:00,
2013-04-27 10:46:00,61.7,25.5,30.25,West,270,4.6,0.0,25,0.00,CLR,,0.00,WeatherDisplay:10.37,2013-04-27 14:46:00,
2013-04-27 10:47:00,62.1,25.8,30.25,NW,315,3.5,0.0,25,0.00,CLR,,0.00,WeatherDisplay:10.37,2013-04-27 14:47:00,
2013-04-27 10:48:00,62.1,25.8,30.25,WNW,292,3.5,3.5,25,0.00,CLR,,0.00,WeatherDisplay:10.37,2013-04-27 14:48:00,
2013-04-27 10:49:00,62.1,25.8,30.25,NNW,338,2.3,2.3,25,0.00,CLR,,0.00,WeatherDisplay:10.37,2013-04-27 14:49:00,
2013-04-27 10:51:00,62.2,25.0,30.25,ENE,68,1.6,2.2,24,0.00,CLR,,0.00,WeatherDisplay:10.37,2013-04-27 14:51:00,
2013-04-27 10:52:00,62.4,26.1,30.25,NNW,338,1.1,1.1,25,0.00,CLR,,0.00,WeatherDisplay:10.37,2013-04-27 14:52:00,
2013-04-27 10:53:00,62.4,26.1,30.25,WNW,292,0.0,0.0,25,0.00,CLR,,0.00,WeatherDisplay:10.37,2013-04-27 14:53:00,
2013-04-27 10:54:00,62.8,25.4,30.25,NNW,338,0.0,0.0,24,0.00,CLR,,0.00,WeatherDisplay:10.37,2013-04-27 14:54:00,
2013-04-27 10:56:00,63.3,25.9,30.25,NNW,338,5.8,5.8,24,0.00,CLR,,0.00,WeatherDisplay:10.37,2013-04-27 14:56:00,
2013-04-27 10:57:00,63.5,26.0,30.25,East,90,4.6,4.6,24,0.00,CLR,,0.00,WeatherDisplay:10.37,2013-04-27 14:57:00,
2013-04-27 10:58:00,63.5,26.0,30.25,East,90,3.5,3.5,24,0.00,CLR,,0.00,WeatherDisplay:10.37,2013-04-27 14:58:00,
2013-04-27 10:59:00,63.9,26.3,30.25,ENE,68,2.6,2.6,24,0.00,CLR,,0.00,WeatherDisplay:10.37,2013-04-27 14:59:00,
2013-04-27 11:01:00,63.7,26.2,30.25,ENE,68,3.5,3.5,24,0.00,CLR,,0.00,WeatherDisplay:10.37,2013-04-27 15:01:00,
2013-04-27 11:03:00,63.9,26.3,30.25,North,0,2.3,0.0,24,0.00,CLR,,0.00,WeatherDisplay:10.37,2013-04-27 15:03:00,
2013-04-27 11:04:00,64.2,26.6,30.25,SW,225,2.0,0.0,24,0.00,CLR,,0.00,WeatherDisplay:10.37,2013-04-27 15:04:00,
2013-04-27 11:06:00,64.2,26.6,30.25,East,90,2.3,0.0,24,0.00,CLR,,0.00,WeatherDisplay:10.37,2013-04-27 15:06:00,
2013-04-27 11:08:00,64.4,25.8,30.25,ESE,112,0.0,0.0,23,0.00,CLR,,0.00,WeatherDisplay:10.37,2013-04-27 15:08:00,
2013-04-27 11:09:00,64.4,26.8,30.25,ESE,112,0.0,0.0,24,0.00,CLR,,0.00,WeatherDisplay:10.37,2013-04-27 15:09:00,
2013-04-27 11:12:00,64.8,26.1,30.25,WSW,248,4.6,4.6,23,0.00,CLR,,0.00,WeatherDisplay:10.37,2013-04-27 15:12:00,
2013-04-27 11:13:00,64.8,26.1,30.25,WNW,292,5.8,5.8,23,0.00,CLR,,0.00,WeatherDisplay:10.37,2013-04-27 15:13:00,
2013-04-27 11:14:00,64.8,26.1,30.25,North,0,5.8,5.8,23,0.00,CLR,,0.00,WeatherDisplay:10.37,2013-04-27 15:14:00,
2013-04-27 11:17:00,65.5,26.7,30.25,SW,225,3.5,3.5,23,0.00,CLR,,0.00,WeatherDisplay:10.37,2013-04-27 15:17:00,
2013-04-27 11:19:00,65.7,26.8,30.25,West,270,3.5,3.5,23,0.00,CLR,,0.00,WeatherDisplay:10.37,2013-04-27 15:19:00,
2013-04-27 11:20:00,65.7,26.8,30.25,WNW,292,3.5,3.5,23,0.00,CLR,,0.00,WeatherDisplay:10.37,2013-04-27 15:20:00,
2013-04-27 11:22:00,65.8,23.6,30.25,North,0,4.6,0.0,20,0.00,CLR,,0.00,WeatherDisplay:10.37,2013-04-27 15:22:00,
2013-04-27 11:24:00,65.8,23.6,30.25,West,270,2.3,2.3,20,0.00,CLR,,0.00,WeatherDisplay:10.37,2013-04-27 15:24:00,
2013-04-27 11:25:00,65.8,23.6,30.25,WNW,292,0.0,0.0,20,0.00,CLR,,0.00,WeatherDisplay:10.37,2013-04-27 15:25:00,
2013-04-27 11:28:00,65.5,26.7,30.25,West,270,1.4,0.0,23,0.00,CLR,,0.00,WeatherDisplay:10.37,2013-04-27 15:28:00,
2013-04-27 11:29:00,66.0,27.1,30.25,WNW,292,1.1,0.0,23,0.00,CLR,,0.00,WeatherDisplay:10.37,2013-04-27 15:29:00,
2013-04-27 11:30:00,66.0,23.8,30.25,WNW,292,1.1,0.0,20,0.00,CLR,,0.00,WeatherDisplay:10.37,2013-04-27 15:30:00,
2013-04-27 11:31:00,66.2,26.2,30.25,SSW,202,1.1,0.0,22,0.00,CLR,,0.00,WeatherDisplay:10.37,2013-04-27 15:31:00,
2013-04-27 11:33:00,65.7,23.5,30.25,South,180,2.3,0.0,20,0.00,CLR,,0.00,WeatherDisplay:10.37,2013-04-27 15:33:00,
2013-04-27 11:34:00,65.8,23.6,30.25,WNW,292,2.2,0.0,20,0.00,CLR,,0.00,WeatherDisplay:10.37,2013-04-27 15:34:00,
2013-04-27 11:35:00,66.2,26.2,30.25,North,0,2.3,2.3,22,0.00,CLR,,0.00,WeatherDisplay:10.37,2013-04-27 15:35:00,
2013-04-27 11:36:00,66.9,24.5,30.25,NW,315,2.3,0.0,20,0.00,CLR,,0.00,WeatherDisplay:10.37,2013-04-27 15:36:00,
2013-04-27 11:38:00,67.6,25.1,30.22,NE,45,2.4,0.0,20,0.00,CLR,,0.00,WeatherDisplay:10.37,2013-04-27 15:38:00,
2013-04-27 11:39:00,67.6,25.1,30.22,ESE,112,5.8,5.8,20,0.00,CLR,,0.00,WeatherDisplay:10.37,2013-04-27 15:39:00,
2013-04-27 11:40:00,67.6,25.1,30.22,NNW,338,5.8,5.8,20,0.00,CLR,,0.00,WeatherDisplay:10.37,2013-04-27 15:40:00,
2013-04-27 11:42:00,67.8,25.2,30.22,NNE,22,2.3,2.3,20,0.00,CLR,,0.00,WeatherDisplay:10.37,2013-04-27 15:42:00,
2013-04-27 11:43:00,68.2,25.5,30.22,North,0,2.3,2.3,20,0.00,CLR,,0.00,WeatherDisplay:10.37,2013-04-27 15:43:00,
2013-04-27 11:44:00,68.2,25.5,30.22,NNE,22,1.6,1.6,20,0.00,CLR,,0.00,WeatherDisplay:10.37,2013-04-27 15:44:00,
2013-04-27 11:45:00,68.5,25.8,30.22,NNW,338,1.1,1.1,20,0.00,CLR,,0.00,WeatherDisplay:10.37,2013-04-27 15:45:00,
2013-04-27 11:47:00,68.5,25.8,30.22,NW,315,2.3,2.3,20,0.00,CLR,,0.00,WeatherDisplay:10.37,2013-04-27 15:47:00,
2013-04-27 11:49:00,68.9,26.1,30.22,SSE,158,1.1,0.0,20,0.00,CLR,,0.00,WeatherDisplay:10.37,2013-04-27 15:49:00,
2013-04-27 11:50:00,68.7,26.0,30.22,NNW,338,5.4,5.4,20,0.00,CLR,,0.00,WeatherDisplay:10.37,2013-04-27 15:50:00,
2013-04-27 11:53:00,68.7,22.1,30.22,ENE,68,3.5,0.0,17,0.00,CLR,,0.00,WeatherDisplay:10.37,2013-04-27 15:53:00,
2013-04-27 11:54:00,68.7,22.1,30.22,ENE,68,0.0,0.0,17,0.00,CLR,,0.00,WeatherDisplay:10.37,2013-04-27 15:54:00,
2013-04-27 11:55:00,68.4,21.8,30.22,ESE,112,0.0,0.0,17,0.00,CLR,,0.00,WeatherDisplay:10.37,2013-04-27 15:55:00,
2013-04-27 11:56:00,67.8,21.4,30.22,SE,135,0.0,0.0,17,0.00,CLR,,0.00,WeatherDisplay:10.37,2013-04-27 15:56:00,
2013-04-27 11:58:00,66.7,20.5,30.22,SE,135,0.0,0.0,17,0.00,CLR,,0.00,WeatherDisplay:10.37,2013-04-27 15:58:00,
2013-04-27 11:59:00,66.7,20.5,30.22,SE,135,0.0,0.0,17,0.00,CLR,,0.00,WeatherDisplay:10.37,2013-04-27 15:59:00,
2013-04-27 12:00:00,67.3,20.9,30.22,SSE,158,0.0,0.0,17,0.00,CLR,,0.00,WeatherDisplay:10.37,2013-04-27 16:00:00,
2013-04-27 12:01:00,67.3,20.9,30.22,SE,135,0.0,0.0,17,0.00,CLR,,0.00,WeatherDisplay:10.37,2013-04-27 16:01:00,
2013-04-27 12:03:00,68.2,25.5,30.22,South,180,0.0,0.0,20,0.00,CLR,,0.00,WeatherDisplay:10.37,2013-04-27 16:03:00,
2013-04-27 12:04:00,68.2,21.7,30.22,SSW,202,0.0,0.0,17,0.00,CLR,,0.00,WeatherDisplay:10.37,2013-04-27 16:04:00,
2013-04-27 12:05:00,68.4,21.8,30.22,SSE,158,0.0,0.0,17,0.00,CLR,,0.00,WeatherDisplay:10.37,2013-04-27 16:05:00,
2013-04-27 12:06:00,68.4,21.8,30.22,SSE,158,0.0,0.0,17,0.00,CLR,,0.00,WeatherDisplay:10.37,2013-04-27 16:06:00,
2013-04-27 12:09:00,68.5,22.0,30.22,SSE,158,0.0,0.0,17,0.00,CLR,,0.00,WeatherDisplay:10.37,2013-04-27 16:09:00,
2013-04-27 12:11:00,69.4,26.6,30.22,SSE,158,0.0,0.0,20,0.00,CLR,,0.00,WeatherDisplay:10.37,2013-04-27 16:11:00,
2013-04-27 12:12:00,69.4,26.6,30.22,South,180,0.0,0.0,20,0.00,CLR,,0.00,WeatherDisplay:10.37,2013-04-27 16:12:00,
2013-04-27 12:14:00,70.2,23.3,30.22,WSW,248,2.0,0.0,17,0.00,CLR,,0.00,WeatherDisplay:10.37,2013-04-27 16:14:00,
2013-04-27 12:15:00,70.7,23.7,30.22,West,270,2.3,2.3,17,0.00,CLR,,0.00,WeatherDisplay:10.37,2013-04-27 16:15:00,
2013-04-27 12:16:00,70.9,23.9,30.22,NW,315,2.3,2.3,17,0.00,CLR,,0.00,WeatherDisplay:10.37,2013-04-27 16:16:00,
2013-04-27 12:17:00,71.1,24.0,30.22,WSW,248,2.3,2.3,17,0.00,CLR,,0.00,WeatherDisplay:10.37,2013-04-27 16:17:00,
2013-04-27 12:19:00,71.4,24.3,30.22,ENE,68,2.3,2.3,17,0.00,CLR,,0.00,WeatherDisplay:10.37,2013-04-27 16:19:00,
2013-04-27 12:20:00,72.0,23.3,30.22,NNW,338,1.1,0.0,16,0.00,CLR,,0.00,WeatherDisplay:10.37,2013-04-27 16:20:00,
2013-04-27 12:22:00,71.6,23.0,30.22,NNW,338,5.8,5.8,16,0.00,CLR,,0.00,WeatherDisplay:10.37,2013-04-27 16:22:00,
2013-04-27 12:24:00,71.4,24.3,30.22,East,90,2.3,0.0,17,0.00,CLR,,0.00,WeatherDisplay:10.37,2013-04-27 16:24:00,
2013-04-27 12:25:00,71.4,24.3,30.22,NW,315,0.0,0.0,17,0.00,CLR,,0.00,WeatherDisplay:10.37,2013-04-27 16:25:00,
2013-04-27 12:27:00,72.0,23.3,30.22,WNW,292,0.0,0.0,16,0.00,CLR,,0.00,WeatherDisplay:10.37,2013-04-27 16:27:00,
2013-04-27 12:30:00,71.6,23.0,30.22,ESE,112,0.0,0.0,16,0.00,CLR,,0.00,WeatherDisplay:10.37,2013-04-27 16:30:00,
2013-04-27 12:31:00,71.6,23.0,30.22,ESE,112,0.0,0.0,16,0.00,CLR,,0.00,WeatherDisplay:10.37,2013-04-27 16:31:00,
2013-04-27 12:32:00,72.1,23.4,30.22,NW,315,0.0,0.0,16,0.00,CLR,,0.00,WeatherDisplay:10.37,2013-04-27 16:32:00,
2013-04-27 12:33:00,72.5,23.7,30.22,East,90,2.6,0.0,16,0.00,CLR,,0.00,WeatherDisplay:10.37,2013-04-27 16:33:00,
2013-04-27 12:35:00,72.9,24.0,30.22,NE,45,0.0,0.0,16,0.00,CLR,,0.00,WeatherDisplay:10.37,2013-04-27 16:35:00,
2013-04-27 12:36:00,72.5,23.7,30.22,North,0,3.5,3.5,16,0.00,CLR,,0.00,WeatherDisplay:10.37,2013-04-27 16:36:00,
2013-04-27 12:37:00,72.3,23.6,30.22,South,180,3.5,3.5,16,0.00,CLR,,0.00,WeatherDisplay:10.37,2013-04-27 16:37:00,
2013-04-27 12:38:00,72.1,23.4,30.19,North,0,3.5,0.0,16,0.00,CLR,,0.00,WeatherDisplay:10.37,2013-04-27 16:38:00,
2013-04-27 12:40:00,72.0,23.3,30.19,ENE,68,2.3,2.3,16,0.00,CLR,,0.00,WeatherDisplay:10.37,2013-04-27 16:40:00,
2013-04-27 12:41:00,72.3,23.6,30.19,WNW,292,3.5,3.5,16,0.00,CLR,,0.00,WeatherDisplay:10.37,2013-04-27 16:41:00,
2013-04-27 12:42:00,72.1,23.4,30.19,NNE,22,4.6,4.6,16,0.00,CLR,,0.00,WeatherDisplay:10.37,2013-04-27 16:42:00,
2013-04-27 12:43:00,72.1,23.4,30.19,NE,45,4.6,4.6,16,0.00,CLR,,0.00,WeatherDisplay:10.37,2013-04-27 16:43:00,
2013-04-27 12:45:00,72.0,23.3,30.19,ESE,112,3.5,3.5,16,0.00,CLR,,0.00,WeatherDisplay:10.37,2013-04-27 16:45:00,
2013-04-27 12:46:00,71.6,23.0,30.19,ESE,112,3.5,3.5,16,0.00,CLR,,0.00,WeatherDisplay:10.37,2013-04-27 16:46:00,
2013-04-27 12:47:00,71.6,23.0,30.19,ESE,112,2.3,0.0,16,0.00,CLR,,0.00,WeatherDisplay:10.37,2013-04-27 16:47:00,
2013-04-27 12:48:00,71.4,24.3,30.19,ESE,112,0.0,0.0,17,0.00,CLR,,0.00,WeatherDisplay:10.37,2013-04-27 16:48:00,
2013-04-27 12:51:00,71.2,24.1,30.19,SE,135,0.0,0.0,17,0.00,CLR,,0.00,WeatherDisplay:10.37,2013-04-27 16:51:00,
2013-04-27 12:52:00,72.0,23.3,30.19,NW,315,2.3,2.3,16,0.00,CLR,,0.00,WeatherDisplay:10.37,2013-04-27 16:52:00,
2013-04-27 12:53:00,72.0,23.3,30.19,NNE,22,2.3,0.0,16,0.00,CLR,,0.00,WeatherDisplay:10.37,2013-04-27 16:53:00,
2013-04-27 12:54:00,72.7,23.9,30.22,North,0,1.1,0.0,16,0.00,CLR,,0.00,WeatherDisplay:10.37,2013-04-27 16:54:00,
2013-04-27 12:56:00,72.5,23.7,30.22,North,0,1.1,0.0,16,0.00,CLR,,0.00,WeatherDisplay:10.37,2013-04-27 16:56:00,
2013-04-27 12:57:00,72.7,23.9,30.22,SE,135,4.6,4.6,16,0.00,CLR,,0.00,WeatherDisplay:10.37,2013-04-27 16:57:00,
2013-04-27 12:58:00,72.7,23.9,30.22,SE,135,3.5,3.5,16,0.00,CLR,,0.00,WeatherDisplay:10.37,2013-04-27 16:58:00,
2013-04-27 12:59:00,72.9,24.0,30.22,NE,45,0.0,0.0,16,0.00,CLR,,0.00,WeatherDisplay:10.37,2013-04-27 16:59:00,
2013-04-27 13:01:00,73.4,24.4,30.22,East,90,0.0,0.0,16,0.00,CLR,,0.00,WeatherDisplay:10.37,2013-04-27 17:01:00,
2013-04-27 13:02:00,73.4,24.4,30.22,North,0,2.0,0.0,16,0.00,CLR,,0.00,WeatherDisplay:10.37,2013-04-27 17:02:00,
2013-04-27 13:03:00,73.2,24.3,30.22,ESE,112,2.3,0.0,16,0.00,CLR,,0.00,WeatherDisplay:10.37,2013-04-27 17:03:00,
2013-04-27 13:04:00,73.6,24.6,30.22,North,0,0.0,0.0,16,0.00,CLR,,0.00,WeatherDisplay:10.37,2013-04-27 17:04:00,
2013-04-27 13:06:00,73.9,24.9,30.22,North,0,0.0,0.0,16,0.00,CLR,,0.00,WeatherDisplay:10.37,2013-04-27 17:06:00,
2013-04-27 13:07:00,74.5,25.3,30.22,NNE,22,0.0,0.0,16,0.00,CLR,,0.00,WeatherDisplay:10.37,2013-04-27 17:07:00,
2013-04-27 13:08:00,74.3,25.2,30.22,NNW,338,1.1,0.0,16,0.00,CLR,,0.00,WeatherDisplay:10.37,2013-04-27 17:08:00,
2013-04-27 13:09:00,74.5,25.3,30.22,SW,225,2.3,2.3,16,0.00,CLR,,0.00,WeatherDisplay:10.37,2013-04-27 17:09:00,
2013-04-27 13:12:00,74.8,25.6,30.22,SE,135,1.1,0.0,16,0.00,CLR,,0.00,WeatherDisplay:10.37,2013-04-27 17:12:00,
2013-04-27 13:13:00,75.6,24.6,30.22,SE,135,1.1,0.0,15,0.00,CLR,,0.00,WeatherDisplay:10.37,2013-04-27 17:13:00,
2013-04-27 13:14:00,75.6,24.6,30.22,SE,135,0.0,0.0,15,0.00,CLR,,0.00,WeatherDisplay:10.37,2013-04-27 17:14:00,
2013-04-27 13:17:00,74.7,25.5,30.22,WNW,292,2.3,2.3,16,0.00,CLR,,0.00,WeatherDisplay:10.37,2013-04-27 17:17:00,
2013-04-27 13:19:00,75.2,24.3,30.22,WSW,248,2.9,2.9,15,0.00,CLR,,0.00,WeatherDisplay:10.37,2013-04-27 17:19:00,
2013-04-27 13:20:00,74.1,25.0,30.22,NNW,338,4.6,4.6,16,0.00,CLR,,0.00,WeatherDisplay:10.37,2013-04-27 17:20:00,
2013-04-27 13:22:00,74.5,25.3,30.22,West,270,5.8,5.8,16,0.00,CLR,,0.00,WeatherDisplay:10.37,2013-04-27 17:22:00,
2013-04-27 13:23:00,74.5,25.3,30.22,WSW,248,4.6,4.6,16,0.00,CLR,,0.00,WeatherDisplay:10.37,2013-04-27 17:23:00,
2013-04-27 13:24:00,73.6,24.6,30.22,West,270,4.0,4.0,16,0.00,CLR,,0.00,WeatherDisplay:10.37,2013-04-27 17:24:00,
2013-04-27 13:25:00,73.8,24.7,30.22,East,90,4.6,4.6,16,0.00,CLR,,0.00,WeatherDisplay:10.37,2013-04-27 17:25:00,
2013-04-27 13:27:00,73.9,24.9,30.22,NNE,22,3.5,3.5,16,0.00,CLR,,0.00,WeatherDisplay:10.37,2013-04-27 17:27:00,
2013-04-27 13:28:00,73.9,24.9,30.22,NNE,22,2.3,2.3,16,0.00,CLR,,0.00,WeatherDisplay:10.37,2013-04-27 17:28:00,
2013-04-27 13:29:00,74.3,25.2,30.22,NNE,22,3.5,3.5,16,0.00,CLR,,0.00,WeatherDisplay:10.37,2013-04-27 17:29:00,
2013-04-27 13:30:00,74.5,25.3,30.22,ESE,112,3.5,3.5,16,0.00,CLR,,0.00,WeatherDisplay:10.37,2013-04-27 17:30:00,
2013-04-27 13:33:00,73.9,24.9,30.22,ENE,68,1.1,2.4,16,0.00,CLR,,0.00,WeatherDisplay:10.37,2013-04-27 17:33:00,
2013-04-27 13:34:00,74.1,25.0,30.22,ESE,112,3.5,3.5,16,0.00,CLR,,0.00,WeatherDisplay:10.37,2013-04-27 17:34:00,
2013-04-27 13:35:00,73.8,24.7,30.22,NE,45,3.5,3.5,16,0.00,CLR,,0.00,WeatherDisplay:10.37,2013-04-27 17:35:00,
2013-04-27 13:38:00,73.6,24.6,30.19,East,90,2.3,0.0,16,0.00,CLR,,0.00,WeatherDisplay:10.37,2013-04-27 17:38:00,
2013-04-27 13:39:00,73.6,24.6,30.19,East,90,0.0,0.0,16,0.00,CLR,,0.00,WeatherDisplay:10.37,2013-04-27 17:39:00,
2013-04-27 13:40:00,73.9,24.9,30.19,ENE,68,0.0,0.0,16,0.00,CLR,,0.00,WeatherDisplay:10.37,2013-04-27 17:40:00,
2013-04-27 13:41:00,74.1,25.0,30.19,SSW,202,0.0,0.0,16,0.00,CLR,,0.00,WeatherDisplay:10.37,2013-04-27 17:41:00,
2013-04-27 13:43:00,75.0,25.7,30.19,WNW,292,0.0,0.0,16,0.00,CLR,,0.00,WeatherDisplay:10.37,2013-04-27 17:43:00,
2013-04-27 13:44:00,75.4,24.5,30.19,SSE,158,0.0,0.0,15,0.00,CLR,,0.00,WeatherDisplay:10.37,2013-04-27 17:44:00,
2013-04-27 13:45:00,75.2,24.3,30.19,SSE,158,0.0,0.0,15,0.00,CLR,,0.00,WeatherDisplay:10.37,2013-04-27 17:45:00,
2013-04-27 13:46:00,75.7,24.8,30.19,SSE,158,0.0,0.0,15,0.00,CLR,,0.00,WeatherDisplay:10.37,2013-04-27 17:46:00,
2013-04-27 13:48:00,76.5,25.3,30.19,NW,315,0.0,0.0,15,0.00,CLR,,0.00,WeatherDisplay:10.37,2013-04-27 17:48:00,
2013-04-27 13:50:00,76.6,25.5,30.19,West,270,5.4,5.4,15,0.00,CLR,,0.00,WeatherDisplay:10.37,2013-04-27 17:50:00,
2013-04-27 13:51:00,75.9,24.9,30.19,SSW,202,5.8,5.8,15,0.00,CLR,,0.00,WeatherDisplay:10.37,2013-04-27 17:51:00,
2013-04-27 13:53:00,76.6,25.5,30.16,WNW,292,3.8,0.0,15,0.00,CLR,,0.00,WeatherDisplay:10.37,2013-04-27 17:53:00,
2013-04-27 13:54:00,76.1,25.1,30.16,NW,315,3.6,3.6,15,0.00,CLR,,0.00,WeatherDisplay:10.37,2013-04-27 17:54:00,
2013-04-27 13:55:00,75.9,24.9,30.16,NW,315,5.8,5.8,15,0.00,CLR,,0.00,WeatherDisplay:10.37,2013-04-27 17:55:00,
2013-04-27 13:56:00,75.6,24.6,30.16,WSW,248,5.8,5.8,15,0.00,CLR,,0.00,WeatherDisplay:10.37,2013-04-27 17:56:00,
2013-04-27 13:59:00,75.9,24.9,30.16,SSE,158,3.5,0.0,15,0.00,CLR,,0.00,WeatherDisplay:10.37,2013-04-27 17:59:00,
2013-04-27 14:00:00,76.3,25.2,30.16,SSE,158,0.0,0.0,15,0.00,CLR,,0.00,WeatherDisplay:10.37,2013-04-27 18:00:00,
2013-04-27 14:01:00,76.3,25.2,30.16,SSW,202,1.1,0.0,15,0.00,CLR,,0.00,WeatherDisplay:10.37,2013-04-27 18:01:00,
2013-04-27 14:04:00,75.6,24.6,30.16,SE,135,4.6,4.6,15,0.00,CLR,,0.00,WeatherDisplay:10.37,2013-04-27 18:04:00,
2013-04-27 14:05:00,74.5,25.3,30.16,ESE,112,8.1,8.1,16,0.00,CLR,,0.00,WeatherDisplay:10.37,2013-04-27 18:05:00,
2013-04-27 14:06:00,74.5,25.3,30.16,ESE,112,8.1,8.1,16,0.00,CLR,,0.00,WeatherDisplay:10.37,2013-04-27 18:06:00,
2013-04-27 14:07:00,73.2,24.3,30.16,SSE,158,9.2,9.2,16,0.00,CLR,,0.00,WeatherDisplay:10.37,2013-04-27 18:07:00,
2013-04-27 14:09:00,72.5,23.7,30.16,SSE,158,5.6,5.6,16,0.00,CLR,,0.00,WeatherDisplay:10.37,2013-04-27 18:09:00,
2013-04-27 14:10:00,72.7,23.9,30.16,SSE,158,5.8,5.8,16,0.00,CLR,,0.00,WeatherDisplay:10.37,2013-04-27 18:10:00,
2013-04-27 14:11:00,72.5,23.7,30.16,ESE,112,7.4,7.4,16,0.00,CLR,,0.00,WeatherDisplay:10.37,2013-04-27 18:11:00,
2013-04-27 14:12:00,72.5,23.7,30.16,SE,135,6.9,6.9,16,0.00,CLR,,0.00,WeatherDisplay:10.37,2013-04-27 18:12:00,
2013-04-27 14:14:00,73.2,24.3,30.16,SSE,158,3.5,3.5,16,0.00,CLR,,0.00,WeatherDisplay:10.37,2013-04-27 18:14:00,
2013-04-27 14:16:00,72.9,24.0,30.16,SE,135,5.8,5.8,16,0.00,CLR,,0.00,WeatherDisplay:10.37,2013-04-27 18:16:00,
2013-04-27 14:17:00,73.0,24.2,30.16,East,90,5.8,5.8,16,0.00,CLR,,0.00,WeatherDisplay:10.37,2013-04-27 18:17:00,
2013-04-27 14:19:00,73.4,24.4,30.16,SSE,158,3.6,3.6,16,0.00,CLR,,0.00,WeatherDisplay:10.37,2013-04-27 18:19:00,
2013-04-27 14:21:00,74.1,25.0,30.16,SSE,158,4.7,4.7,16,0.00,CLR,,0.00,WeatherDisplay:10.37,2013-04-27 18:21:00,
2013-04-27 14:22:00,74.3,25.2,30.16,ESE,112,4.6,4.6,16,0.00,CLR,,0.00,WeatherDisplay:10.37,2013-04-27 18:22:00,
2013-04-27 14:24:00,73.4,24.4,30.16,ESE,112,8.1,8.1,16,0.00,CLR,,0.00,WeatherDisplay:10.37,2013-04-27 18:24:00,
2013-04-27 14:26:00,73.2,24.3,30.16,SE,135,3.5,3.5,16,0.00,CLR,,0.00,WeatherDisplay:10.37,2013-04-27 18:26:00,
2013-04-27 14:27:00,74.1,25.0,30.16,SE,135,5.4,5.4,16,0.00,CLR,,0.00,WeatherDisplay:10.37,2013-04-27 18:27:00,
2013-04-27 14:29:00,73.4,24.4,30.16,SSE,158,5.8,5.8,16,0.00,CLR,,0.00,WeatherDisplay:10.37,2013-04-27 18:29:00,
2013-04-27 14:30:00,73.4,24.4,30.16,SSE,158,5.8,5.8,16,0.00,CLR,,0.00,WeatherDisplay:10.37,2013-04-27 18:30:00,
2013-04-27 14:31:00,72.3,23.6,30.16,SE,135,7.1,7.1,16,0.00,CLR,,0.00,WeatherDisplay:10.37,2013-04-27 18:31:00,
2013-04-27 14:32:00,72.0,23.3,30.16,ESE,112,9.2,9.2,16,0.00,CLR,,0.00,WeatherDisplay:10.37,2013-04-27 18:32:00,
2013-04-27 14:33:00,71.1,24.0,30.16,SE,135,10.4,10.4,17,0.00,CLR,,0.00,WeatherDisplay:10.37,2013-04-27 18:33:00,
2013-04-27 14:34:00,71.1,24.0,30.16,SSE,158,10.4,10.4,17,0.00,CLR,,0.00,WeatherDisplay:10.37,2013-04-27 18:34:00,
2013-04-27 14:35:00,71.1,24.0,30.16,SE,135,5.8,5.8,17,0.00,CLR,,0.00,WeatherDisplay:10.37,2013-04-27 18:35:00,
2013-04-27 14:36:00,71.6,23.0,30.16,East,90,5.8,5.8,16,0.00,CLR,,0.00,WeatherDisplay:10.37,2013-04-27 18:36:00,
2013-04-27 14:37:00,72.1,23.4,30.16,ESE,112,4.6,4.6,16,0.00,CLR,,0.00,WeatherDisplay:10.37,2013-04-27 18:37:00,
2013-04-27 14:38:00,72.1,23.4,30.16,SE,135,4.6,4.6,16,0.00,CLR,,0.00,WeatherDisplay:10.37,2013-04-27 18:38:00,
2013-04-27 14:40:00,71.6,23.0,30.16,SE,135,6.9,6.9,16,0.00,CLR,,0.00,WeatherDisplay:10.37,2013-04-27 18:40:00,
2013-04-27 14:41:00,71.2,24.1,30.16,ESE,112,4.6,4.6,17,0.00,CLR,,0.00,WeatherDisplay:10.37,2013-04-27 18:41:00,
2013-04-27 14:42:00,71.2,24.1,30.16,ESE,112,4.6,4.6,17,0.00,CLR,,0.00,WeatherDisplay:10.37,2013-04-27 18:42:00,
2013-04-27 14:43:00,71.2,24.1,30.16,SSE,158,8.1,8.1,17,0.00,CLR,,0.00,WeatherDisplay:10.37,2013-04-27 18:43:00,
2013-04-27 14:45:00,71.6,23.0,30.16,SE,135,3.5,3.5,16,0.00,CLR,,0.00,WeatherDisplay:10.37,2013-04-27 18:45:00,
2013-04-27 14:46:00,72.0,23.3,30.16,SSE,158,3.5,3.5,16,0.00,CLR,,0.00,WeatherDisplay:10.37,2013-04-27 18:46:00,
2013-04-27 14:47:00,71.6,23.0,30.16,ESE,112,5.8,5.8,16,0.00,CLR,,0.00,WeatherDisplay:10.37,2013-04-27 18:47:00,
2013-04-27 14:48:00,72.0,23.3,30.16,ESE,112,4.6,4.6,16,0.00,CLR,,0.00,WeatherDisplay:10.37,2013-04-27 18:48:00,
2013-04-27 14:50:00,71.4,24.3,30.16,ESE,112,4.6,4.6,17,0.00,CLR,,0.00,WeatherDisplay:10.37,2013-04-27 18:50:00,
2013-04-27 14:51:00,71.2,24.1,30.16,ESE,112,6.9,6.9,17,0.00,CLR,,0.00,WeatherDisplay:10.37,2013-04-27 18:51:00,
2013-04-27 14:52:00,71.2,24.1,30.16,East,90,0.9,0.0,17,0.00,CLR,,0.00,WeatherDisplay:10.37,2013-04-27 18:52:00,
2013-04-27 14:54:00,70.3,23.4,30.13,ESE,112,5.8,5.8,17,0.00,CLR,,0.00,WeatherDisplay:10.37,2013-04-27 18:54:00,
2013-04-27 14:55:00,71.1,24.0,30.13,ESE,112,4.6,4.6,17,0.00,CLR,,0.00,WeatherDisplay:10.37,2013-04-27 18:55:00,
2013-04-27 14:56:00,71.4,24.3,30.13,South,180,4.0,4.0,17,0.00,CLR,,0.00,WeatherDisplay:10.37,2013-04-27 18:56:00,
2013-04-27 14:57:00,71.8,23.1,30.13,ESE,112,4.9,4.9,16,0.00,CLR,,0.00,WeatherDisplay:10.37,2013-04-27 18:57:00,
2013-04-27 14:59:00,70.5,23.6,30.13,ESE,112,8.1,8.1,17,0.00,CLR,,0.00,WeatherDisplay:10.37,2013-04-27 18:59:00,
2013-04-27 15:00:00,70.5,23.6,30.13,ESE,112,4.6,4.6,17,0.00,CLR,,0.00,WeatherDisplay:10.37,2013-04-27 19:00:00,
2013-04-27 15:01:00,70.0,23.1,30.13,ESE,112,6.2,6.2,17,0.00,CLR,,0.00,WeatherDisplay:10.37,2013-04-27 19:01:00,
2013-04-27 15:02:00,70.0,23.1,30.13,ESE,112,8.1,8.1,17,0.00,CLR,,0.00,WeatherDisplay:10.37,2013-04-27 19:02:00,
2013-04-27 15:03:00,70.0,23.1,30.13,ESE,112,6.9,6.9,17,0.00,CLR,,0.00,WeatherDisplay:10.37,2013-04-27 19:03:00,
2013-04-27 15:04:00,70.0,23.1,30.13,ESE,112,6.9,6.9,17,0.00,CLR,,0.00,WeatherDisplay:10.37,2013-04-27 19:04:00,
2013-04-27 15:05:00,70.0,23.1,30.13,ESE,112,6.9,0.0,17,0.00,CLR,,0.00,WeatherDisplay:10.37,2013-04-27 19:05:00,
2013-04-27 15:06:00,70.7,23.7,30.13,ESE,112,3.5,0.0,17,0.00,CLR,,0.00,WeatherDisplay:10.37,2013-04-27 19:06:00,
2013-04-27 15:07:00,70.3,23.4,30.13,ESE,112,5.8,5.8,17,0.00,CLR,,0.00,WeatherDisplay:10.37,2013-04-27 19:07:00,
2013-04-27 15:08:00,70.3,23.4,30.16,ESE,112,5.8,5.8,17,0.00,CLR,,0.00,WeatherDisplay:10.37,2013-04-27 19:08:00,
2013-04-27 15:09:00,70.5,23.6,30.16,ESE,112,5.8,5.8,17,0.00,CLR,,0.00,WeatherDisplay:10.37,2013-04-27 19:09:00,
2013-04-27 15:10:00,70.2,23.3,30.16,ESE,112,7.4,7.4,17,0.00,CLR,,0.00,WeatherDisplay:10.37,2013-04-27 19:10:00,
2013-04-27 15:11:00,70.2,23.3,30.16,SSE,158,6.9,6.9,17,0.00,CLR,,0.00,WeatherDisplay:10.37,2013-04-27 19:11:00,
2013-04-27 15:13:00,70.3,23.4,30.16,East,90,4.6,4.6,17,0.00,CLR,,0.00,WeatherDisplay:10.37,2013-04-27 19:13:00,
2013-04-27 15:14:00,70.5,23.6,30.16,SE,135,4.6,4.6,17,0.00,CLR,,0.00,WeatherDisplay:10.37,2013-04-27 19:14:00,
2013-04-27 15:15:00,70.7,23.7,30.16,ESE,112,2.3,0.0,17,0.00,CLR,,0.00,WeatherDisplay:10.37,2013-04-27 19:15:00,
2013-04-27 15:16:00,70.7,23.7,30.16,SSE,158,4.6,4.6,17,0.00,CLR,,0.00,WeatherDisplay:10.37,2013-04-27 19:16:00,
2013-04-27 15:18:00,70.9,23.9,30.16,SSE,158,4.3,4.3,17,0.00,CLR,,0.00,WeatherDisplay:10.37,2013-04-27 19:18:00,
2013-04-27 15:19:00,70.5,23.6,30.16,SE,135,6.9,6.9,17,0.00,CLR,,0.00,WeatherDisplay:10.37,2013-04-27 19:19:00,
2013-04-27 15:20:00,71.1,24.0,30.16,SSE,158,5.8,5.8,17,0.00,CLR,,0.00,WeatherDisplay:10.37,2013-04-27 19:20:00,
2013-04-27 15:22:00,71.2,24.1,30.16,ESE,112,3.5,3.5,17,0.00,CLR,,0.00,WeatherDisplay:10.37,2013-04-27 19:22:00,
2013-04-27 15:23:00,71.2,24.1,30.16,SSE,158,5.8,5.8,17,0.00,CLR,,0.00,WeatherDisplay:10.37,2013-04-27 19:23:00,
2013-04-27 15:24:00,71.4,24.3,30.16,SSE,158,5.8,0.0,17,0.00,CLR,,0.00,WeatherDisplay:10.37,2013-04-27 19:24:00,
2013-04-27 15:25:00,72.0,23.3,30.16,ESE,112,3.8,3.8,16,0.00,CLR,,0.00,WeatherDisplay:10.37,2013-04-27 19:25:00,
2013-04-27 15:27:00,71.6,23.0,30.16,SSE,158,9.2,9.2,16,0.00,CLR,,0.00,WeatherDisplay:10.37,2013-04-27 19:27:00,
2013-04-27 15:28:00,71.1,24.0,30.16,ESE,112,5.8,5.8,17,0.00,CLR,,0.00,WeatherDisplay:10.37,2013-04-27 19:28:00,
2013-04-27 15:29:00,71.1,24.0,30.16,SW,225,5.8,5.8,17,0.00,CLR,,0.00,WeatherDisplay:10.37,2013-04-27 19:29:00,
2013-04-27 15:30:00,71.1,24.0,30.16,SSE,158,5.8,5.8,17,0.00,CLR,,0.00,WeatherDisplay:10.37,2013-04-27 19:30:00,
2013-04-27 15:32:00,70.7,23.7,30.16,SSE,158,4.7,4.7,17,0.00,CLR,,0.00,WeatherDisplay:10.37,2013-04-27 19:32:00,
2013-04-27 15:33:00,70.5,23.6,30.16,ESE,112,7.4,7.4,17,0.00,CLR,,0.00,WeatherDisplay:10.37,2013-04-27 19:33:00,
2013-04-27 15:35:00,70.0,23.1,30.16,SE,135,6.9,6.9,17,0.00,CLR,,0.00,WeatherDisplay:10.37,2013-04-27 19:35:00,
2013-04-27 15:37:00,69.6,22.8,30.16,SSE,158,5.9,5.9,17,0.00,CLR,,0.00,WeatherDisplay:10.37,2013-04-27 19:37:00,
2013-04-27 15:38:00,70.0,23.1,30.16,ENE,68,5.8,5.8,17,0.00,CLR,,0.00,WeatherDisplay:10.37,2013-04-27 19:38:00,
2013-04-27 15:40:00,70.5,23.6,30.16,SSE,158,4.6,4.6,17,0.00,CLR,,0.00,WeatherDisplay:10.37,2013-04-27 19:40:00,
2013-04-27 15:42:00,69.8,23.0,30.16,SE,135,10.4,10.4,17,0.00,CLR,,0.00,WeatherDisplay:10.37,2013-04-27 19:42:00,
2013-04-27 15:43:00,69.6,22.8,30.16,SSE,158,6.0,6.0,17,0.00,CLR,,0.00,WeatherDisplay:10.37,2013-04-27 19:43:00,
2013-04-27 15:45:00,69.6,22.8,30.16,ESE,112,5.8,5.8,17,0.00,CLR,,0.00,WeatherDisplay:10.37,2013-04-27 19:45:00,
2013-04-27 15:46:00,69.4,22.7,30.16,SSE,158,8.1,8.1,17,0.00,CLR,,0.00,WeatherDisplay:10.37,2013-04-27 19:46:00,
2013-04-27 15:48:00,69.3,22.5,30.16,SSE,158,8.1,8.1,17,0.00,CLR,,0.00,WeatherDisplay:10.37,2013-04-27 19:48:00,
2013-04-27 15:49:00,69.3,22.5,30.16,SSE,158,4.6,4.6,17,0.00,CLR,,0.00,WeatherDisplay:10.37,2013-04-27 19:49:00,
2013-04-27 15:50:00,69.6,22.8,30.16,East,90,9.8,9.8,17,0.00,CLR,,0.00,WeatherDisplay:10.37,2013-04-27 19:50:00,
2013-04-27 15:51:00,69.4,22.7,30.16,SE,135,9.2,9.2,17,0.00,CLR,,0.00,WeatherDisplay:10.37,2013-04-27 19:51:00,
2013-04-27 15:53:00,69.1,22.4,30.16,ESE,112,6.9,6.9,17,0.00,CLR,,0.00,WeatherDisplay:10.37,2013-04-27 19:53:00,
2013-04-27 15:54:00,69.6,22.8,30.16,SSE,158,4.7,4.7,17,0.00,CLR,,0.00,WeatherDisplay:10.37,2013-04-27 19:54:00,
2013-04-27 15:55:00,69.6,22.8,30.16,SSE,158,4.6,4.6,17,0.00,CLR,,0.00,WeatherDisplay:10.37,2013-04-27 19:55:00,
2013-04-27 15:56:00,69.6,22.8,30.16,SSE,158,4.6,4.6,17,0.00,CLR,,0.00,WeatherDisplay:10.37,2013-04-27 19:56:00,
2013-04-27 15:58:00,70.0,23.1,30.16,ESE,112,0.0,0.0,17,0.00,CLR,,0.00,WeatherDisplay:10.37,2013-04-27 19:58:00,
2013-04-27 16:00:00,69.3,22.5,30.16,ESE,112,5.8,5.8,17,0.00,CLR,,0.00,WeatherDisplay:10.37,2013-04-27 20:00:00,
2013-04-27 16:01:00,69.3,22.5,30.16,ESE,112,5.8,5.8,17,0.00,CLR,,0.00,WeatherDisplay:10.37,2013-04-27 20:01:00,
2013-04-27 16:03:00,69.1,22.4,30.16,ESE,112,9.2,9.2,17,0.00,CLR,,0.00,WeatherDisplay:10.37,2013-04-27 20:03:00,
2013-04-27 16:05:00,69.3,22.5,30.16,ESE,112,8.1,8.1,17,0.00,CLR,,0.00,WeatherDisplay:10.37,2013-04-27 20:05:00,
2013-04-27 16:06:00,69.4,22.7,30.16,SSE,158,5.8,5.8,17,0.00,CLR,,0.00,WeatherDisplay:10.37,2013-04-27 20:06:00,
2013-04-27 16:07:00,69.6,22.8,30.16,SSE,158,5.8,5.8,17,0.00,CLR,,0.00,WeatherDisplay:10.37,2013-04-27 20:07:00,
2013-04-27 16:08:00,69.3,22.5,30.16,ESE,112,5.8,5.8,17,0.00,CLR,,0.00,WeatherDisplay:10.37,2013-04-27 20:08:00,
2013-04-27 16:10:00,68.7,22.1,30.16,ESE,112,10.4,10.4,17,0.00,CLR,,0.00,WeatherDisplay:10.37,2013-04-27 20:10:00,
2013-04-27 16:11:00,69.1,22.4,30.16,ESE,112,5.8,5.8,17,0.00,CLR,,0.00,WeatherDisplay:10.37,2013-04-27 20:11:00,
2013-04-27 16:12:00,69.1,22.4,30.16,ESE,112,5.6,5.6,17,0.00,CLR,,0.00,WeatherDisplay:10.37,2013-04-27 20:12:00,
2013-04-27 16:13:00,69.1,22.4,30.16,SE,135,7.6,7.6,17,0.00,CLR,,0.00,WeatherDisplay:10.37,2013-04-27 20:13:00,
2013-04-27 16:15:00,68.7,22.1,30.16,South,180,6.9,6.9,17,0.00,CLR,,0.00,WeatherDisplay:10.37,2013-04-27 20:15:00,
2013-04-27 16:16:00,69.1,22.4,30.16,SSE,158,3.5,3.5,17,0.00,CLR,,0.00,WeatherDisplay:10.37,2013-04-27 20:16:00,
2013-04-27 16:17:00,69.3,22.5,30.16,SSE,158,6.9,6.9,17,0.00,CLR,,0.00,WeatherDisplay:10.37,2013-04-27 20:17:00,
2013-04-27 16:18:00,68.9,22.2,30.16,ESE,112,6.9,6.9,17,0.00,CLR,,0.00,WeatherDisplay:10.37,2013-04-27 20:18:00,
2013-04-27 16:20:00,68.2,21.7,30.16,ESE,112,8.7,8.7,17,0.00,CLR,,0.00,WeatherDisplay:10.37,2013-04-27 20:20:00,
2013-04-27 16:21:00,68.2,21.7,30.16,ESE,112,9.2,9.2,17,0.00,CLR,,0.00,WeatherDisplay:10.37,2013-04-27 20:21:00,
2013-04-27 16:22:00,68.0,21.5,30.16,ESE,112,6.9,6.9,17,0.00,CLR,,0.00,WeatherDisplay:10.37,2013-04-27 20:22:00,
2013-04-27 16:23:00,68.2,21.7,30.13,SE,135,8.1,8.1,17,0.00,CLR,,0.00,WeatherDisplay:10.37,2013-04-27 20:23:00,
2013-04-27 16:26:00,67.8,21.4,30.13,ESE,112,6.9,6.9,17,0.00,CLR,,0.00,WeatherDisplay:10.37,2013-04-27 20:26:00,
2013-04-27 16:27:00,67.8,21.4,30.13,SSE,158,6.9,6.9,17,0.00,CLR,,0.00,WeatherDisplay:10.37,2013-04-27 20:27:00,
2013-04-27 16:28:00,68.2,21.7,30.13,South,180,5.8,5.8,17,0.00,CLR,,0.00,WeatherDisplay:10.37,2013-04-27 20:28:00,
2013-04-27 16:31:00,68.5,22.0,30.13,ESE,112,5.8,5.8,17,0.00,CLR,,0.00,WeatherDisplay:10.37,2013-04-27 20:31:00,
2013-04-27 16:32:00,68.7,22.1,30.13,SSE,158,3.5,3.5,17,0.00,CLR,,0.00,WeatherDisplay:10.37,2013-04-27 20:32:00,
2013-04-27 16:33:00,69.3,22.5,30.13,ESE,112,4.7,4.7,17,0.00,CLR,,0.00,WeatherDisplay:10.37,2013-04-27 20:33:00,
2013-04-27 16:36:00,68.0,21.5,30.13,SE,135,8.1,8.1,17,0.00,CLR,,0.00,WeatherDisplay:10.37,2013-04-27 20:36:00,
2013-04-27 16:37:00,68.0,21.5,30.13,ESE,112,8.1,8.1,17,0.00,CLR,,0.00,WeatherDisplay:10.37,2013-04-27 20:37:00,
2013-04-27 16:39:00,68.0,21.5,30.13,SSE,158,5.8,5.8,17,0.00,CLR,,0.00,WeatherDisplay:10.37,2013-04-27 20:39:00,
2013-04-27 16:41:00,67.8,21.4,30.13,SE,135,7.6,7.6,17,0.00,CLR,,0.00,WeatherDisplay:10.37,2013-04-27 20:41:00,
2013-04-27 16:42:00,67.8,21.4,30.13,ESE,112,8.1,8.1,17,0.00,CLR,,0.00,WeatherDisplay:10.37,2013-04-27 20:42:00,
2013-04-27 16:44:00,68.9,22.2,30.13,East,90,2.3,2.3,17,0.00,CLR,,0.00,WeatherDisplay:10.37,2013-04-27 20:44:00,
2013-04-27 16:46:00,69.1,22.4,30.13,ESE,112,4.6,4.6,17,0.00,CLR,,0.00,WeatherDisplay:10.37,2013-04-27 20:46:00,
2013-04-27 16:47:00,69.1,22.4,30.13,East,90,5.8,5.8,17,0.00,CLR,,0.00,WeatherDisplay:10.37,2013-04-27 20:47:00,
2013-04-27 16:48:00,68.5,22.0,30.13,ESE,112,3.5,3.5,17,0.00,CLR,,0.00,WeatherDisplay:10.37,2013-04-27 20:48:00,
2013-04-27 16:49:00,68.7,22.1,30.13,ESE,112,4.6,0.0,17,0.00,CLR,,0.00,WeatherDisplay:10.37,2013-04-27 20:49:00,
2013-04-27 16:51:00,69.1,22.4,30.13,ESE,112,3.5,0.0,17,0.00,CLR,,0.00,WeatherDisplay:10.37,2013-04-27 20:51:00,
2013-04-27 16:52:00,69.1,22.4,30.13,East,90,1.1,0.0,17,0.00,CLR,,0.00,WeatherDisplay:10.37,2013-04-27 20:52:00,
2013-04-27 16:53:00,69.1,22.4,30.13,SE,135,0.0,0.0,17,0.00,CLR,,0.00,WeatherDisplay:10.37,2013-04-27 20:53:00,
2013-04-27 16:54:00,68.5,22.0,30.13,ENE,68,2.4,0.0,17,0.00,CLR,,0.00,WeatherDisplay:10.37,2013-04-27 20:54:00,
2013-04-27 16:57:00,68.5,22.0,30.13,ESE,112,8.5,8.5,17,0.00,CLR,,0.00,WeatherDisplay:10.37,2013-04-27 20:57:00,
2013-04-27 16:58:00,68.0,21.5,30.13,SE,135,9.2,9.2,17,0.00,CLR,,0.00,WeatherDisplay:10.37,2013-04-27 20:58:00,
2013-04-27 16:59:00,68.0,21.5,30.13,East,90,4.6,0.0,17,0.00,CLR,,0.00,WeatherDisplay:10.37,2013-04-27 20:59:00,
2013-04-27 17:02:00,68.4,21.8,30.13,ESE,112,4.6,4.6,17,0.00,CLR,,0.00,WeatherDisplay:10.37,2013-04-27 21:02:00,
2013-04-27 17:03:00,68.4,21.8,30.13,SE,135,6.9,6.9,17,0.00,CLR,,0.00,WeatherDisplay:10.37,2013-04-27 21:03:00,
2013-04-27 17:05:00,68.4,21.8,30.13,ESE,112,4.6,4.6,17,0.00,CLR,,0.00,WeatherDisplay:10.37,2013-04-27 21:05:00,
2013-04-27 17:07:00,68.2,21.7,30.13,SSE,158,6.9,6.9,17,0.00,CLR,,0.00,WeatherDisplay:10.37,2013-04-27 21:07:00,
2013-04-27 17:08:00,68.2,21.7,30.13,SSE,158,5.8,5.8,17,0.00,CLR,,0.00,WeatherDisplay:10.37,2013-04-27 21:08:00,
2013-04-27 17:09:00,68.2,21.7,30.13,East,90,5.8,5.8,17,0.00,CLR,,0.00,WeatherDisplay:10.37,2013-04-27 21:09:00,
2013-04-27 17:10:00,68.0,21.5,30.13,ESE,112,4.6,4.6,17,0.00,CLR,,0.00,WeatherDisplay:10.37,2013-04-27 21:10:00,
2013-04-27 17:12:00,67.8,21.4,30.13,ESE,112,3.5,4.0,17,0.00,CLR,,0.00,WeatherDisplay:10.37,2013-04-27 21:12:00,
2013-04-27 17:13:00,67.8,21.4,30.13,ESE,112,3.5,0.0,17,0.00,CLR,,0.00,WeatherDisplay:10.37,2013-04-27 21:13:00,
2013-04-27 17:14:00,68.0,21.5,30.13,SE,135,4.6,4.6,17,0.00,CLR,,0.00,WeatherDisplay:10.37,2013-04-27 21:14:00,
2013-04-27 17:15:00,68.0,21.5,30.13,ESE,112,8.7,8.7,17,0.00,CLR,,0.00,WeatherDisplay:10.37,2013-04-27 21:15:00,
2013-04-27 17:17:00,67.5,21.1,30.13,ESE,112,6.9,6.9,17,0.00,CLR,,0.00,WeatherDisplay:10.37,2013-04-27 21:17:00,
2013-04-27 17:18:00,67.5,21.1,30.13,ESE,112,3.3,3.3,17,0.00,CLR,,0.00,WeatherDisplay:10.37,2013-04-27 21:18:00,
2013-04-27 17:19:00,67.8,21.4,30.13,ESE,112,4.6,4.6,17,0.00,CLR,,0.00,WeatherDisplay:10.37,2013-04-27 21:19:00,
2013-04-27 17:20:00,67.8,21.4,30.13,SE,135,5.4,5.4,17,0.00,CLR,,0.00,WeatherDisplay:10.37,2013-04-27 21:20:00,
2013-04-27 17:22:00,67.5,21.1,30.13,SE,135,5.8,5.8,17,0.00,CLR,,0.00,WeatherDisplay:10.37,2013-04-27 21:22:00,
2013-04-27 17:23:00,67.6,21.2,30.13,ESE,112,4.6,4.6,17,0.00,CLR,,0.00,WeatherDisplay:10.37,2013-04-27 21:23:00,
2013-04-27 17:24:00,67.5,21.1,30.13,ESE,112,6.9,6.9,17,0.00,CLR,,0.00,WeatherDisplay:10.37,2013-04-27 21:24:00,
2013-04-27 17:25:00,67.3,20.9,30.13,ESE,112,6.9,6.9,17,0.00,CLR,,0.00,WeatherDisplay:10.37,2013-04-27 21:25:00,
2013-04-27 17:28:00,67.5,21.1,30.13,SE,135,4.6,4.6,17,0.00,CLR,,0.00,WeatherDisplay:10.37,2013-04-27 21:28:00,
2013-04-27 17:29:00,67.6,21.2,30.13,East,90,2.6,0.0,17,0.00,CLR,,0.00,WeatherDisplay:10.37,2013-04-27 21:29:00,
2013-04-27 17:30:00,67.6,21.2,30.13,SSE,158,5.8,5.8,17,0.00,CLR,,0.00,WeatherDisplay:10.37,2013-04-27 21:30:00,
2013-04-27 17:33:00,68.7,26.0,30.13,ESE,112,2.9,2.9,20,0.00,CLR,,0.00,WeatherDisplay:10.37,2013-04-27 21:33:00,
2013-04-27 17:34:00,68.4,21.8,30.13,ESE,112,2.3,0.0,17,0.00,CLR,,0.00,WeatherDisplay:10.37,2013-04-27 21:34:00,
2013-04-27 17:35:00,68.4,21.8,30.13,SE,135,6.2,6.2,17,0.00,CLR,,0.00,WeatherDisplay:10.37,2013-04-27 21:35:00,
2013-04-27 17:36:00,68.4,21.8,30.13,SE,135,5.8,5.8,17,0.00,CLR,,0.00,WeatherDisplay:10.37,2013-04-27 21:36:00,
2013-04-27 17:38:00,68.0,21.5,30.13,SSE,158,6.9,6.9,17,0.00,CLR,,0.00,WeatherDisplay:10.37,2013-04-27 21:38:00,
2013-04-27 17:39:00,67.8,21.4,30.13,SSE,158,5.8,5.8,17,0.00,CLR,,0.00,WeatherDisplay:10.37,2013-04-27 21:39:00,
2013-04-27 17:40:00,68.0,21.5,30.13,SSE,158,0.0,4.7,17,0.00,CLR,,0.00,WeatherDisplay:10.37,2013-04-27 21:40:00,
2013-04-27 17:41:00,67.8,21.4,30.13,SSE,158,0.0,4.7,17,0.00,CLR,,0.00,WeatherDisplay:10.37,2013-04-27 21:41:00,
2013-04-27 17:43:00,67.8,21.4,30.13,SSE,158,2.3,2.3,17,0.00,CLR,,0.00,WeatherDisplay:10.37,2013-04-27 21:43:00,
2013-04-27 17:44:00,67.8,21.4,30.13,SE,135,2.3,2.3,17,0.00,CLR,,0.00,WeatherDisplay:10.37,2013-04-27 21:44:00,
2013-04-27 17:45:00,67.6,21.2,30.13,SSE,158,0.0,1.4,17,0.00,CLR,,0.00,WeatherDisplay:10.37,2013-04-27 21:45:00,
2013-04-27 17:46:00,67.8,21.4,30.13,ESE,112,0.0,0.0,17,0.00,CLR,,0.00,WeatherDisplay:10.37,2013-04-27 21:46:00,
2013-04-27 17:48:00,67.6,21.2,30.13,SE,135,5.8,5.8,17,0.00,CLR,,0.00,WeatherDisplay:10.37,2013-04-27 21:48:00,
2013-04-27 17:50:00,67.6,21.2,30.13,SSE,158,4.6,4.6,17,0.00,CLR,,0.00,WeatherDisplay:10.37,2013-04-27 21:50:00,
2013-04-27 17:51:00,67.6,21.2,30.13,SSE,158,2.3,2.3,17,0.00,CLR,,0.00,WeatherDisplay:10.37,2013-04-27 21:51:00,
2013-04-27 17:52:00,68.2,21.7,30.13,SSE,158,0.0,1.1,17,0.00,CLR,,0.00,WeatherDisplay:10.37,2013-04-27 21:52:00,
2013-04-27 17:54:00,68.4,21.8,30.13,ESE,112,1.1,0.0,17,0.00,CLR,,0.00,WeatherDisplay:10.37,2013-04-27 21:54:00,
2013-04-27 17:55:00,68.4,21.8,30.13,SSE,158,0.0,0.0,17,0.00,CLR,,0.00,WeatherDisplay:10.37,2013-04-27 21:55:00,
2013-04-27 17:56:00,68.0,21.5,30.13,ESE,112,0.0,0.0,17,0.00,CLR,,0.00,WeatherDisplay:10.37,2013-04-27 21:56:00,
2013-04-27 17:57:00,67.8,21.4,30.13,ESE,112,0.0,0.0,17,0.00,CLR,,0.00,WeatherDisplay:10.37,2013-04-27 21:57:00,
2013-04-27 17:59:00,67.5,21.1,30.13,SE,135,5.9,5.9,17,0.00,CLR,,0.00,WeatherDisplay:10.37,2013-04-27 21:59:00,
2013-04-27 18:01:00,67.5,21.1,30.13,ESE,112,5.8,0.0,17,0.00,CLR,,0.00,WeatherDisplay:10.37,2013-04-27 22:01:00,
2013-04-27 18:02:00,66.9,20.6,30.13,ESE,112,1.1,1.6,17,0.00,CLR,,0.00,WeatherDisplay:10.37,2013-04-27 22:02:00,
2013-04-27 18:04:00,67.1,20.8,30.13,ESE,112,0.0,0.0,17,0.00,CLR,,0.00,WeatherDisplay:10.37,2013-04-27 22:04:00,
2013-04-27 18:06:00,67.1,20.8,30.13,ESE,112,2.0,2.0,17,0.00,CLR,,0.00,WeatherDisplay:10.37,2013-04-27 22:06:00,
2013-04-27 18:07:00,67.3,20.9,30.13,SE,135,2.3,2.3,17,0.00,CLR,,0.00,WeatherDisplay:10.37,2013-04-27 22:07:00,
2013-04-27 18:10:00,67.3,20.9,30.13,ESE,112,2.3,2.3,17,0.00,CLR,,0.00,WeatherDisplay:10.37,2013-04-27 22:10:00,
2013-04-27 18:11:00,67.3,20.9,30.13,SE,135,4.3,4.3,17,0.00,CLR,,0.00,WeatherDisplay:10.37,2013-04-27 22:11:00,
2013-04-27 18:12:00,67.1,20.8,30.13,ESE,112,5.8,5.8,17,0.00,CLR,,0.00,WeatherDisplay:10.37,2013-04-27 22:12:00,
2013-04-27 18:15:00,66.9,20.6,30.13,ESE,112,0.0,0.0,17,0.00,CLR,,0.00,WeatherDisplay:10.37,2013-04-27 22:15:00,
2013-04-27 18:16:00,66.7,20.5,30.13,SE,135,4.0,4.0,17,0.00,CLR,,0.00,WeatherDisplay:10.37,2013-04-27 22:16:00,
2013-04-27 18:17:00,66.7,20.5,30.13,SE,135,5.8,5.8,17,0.00,CLR,,0.00,WeatherDisplay:10.37,2013-04-27 22:17:00,
2013-04-27 18:20:00,66.7,24.3,30.13,ESE,112,5.8,5.8,20,0.00,CLR,,0.00,WeatherDisplay:10.37,2013-04-27 22:20:00,
2013-04-27 18:21:00,66.7,24.3,30.13,ESE,112,5.8,5.8,20,0.00,CLR,,0.00,WeatherDisplay:10.37,2013-04-27 22:21:00,
2013-04-27 18:22:00,66.9,24.5,30.13,ESE,112,3.5,3.5,20,0.00,CLR,,0.00,WeatherDisplay:10.37,2013-04-27 22:22:00,
2013-04-27 18:25:00,66.9,24.5,30.10,ESE,112,2.3,2.3,20,0.00,CLR,,0.00,WeatherDisplay:10.37,2013-04-27 22:25:00,
2013-04-27 18:26:00,66.7,24.3,30.10,ESE,112,2.3,0.0,20,0.00,CLR,,0.00,WeatherDisplay:10.37,2013-04-27 22:26:00,
2013-04-27 18:27:00,66.6,24.2,30.10,ESE,112,0.0,0.0,20,0.00,CLR,,0.00,WeatherDisplay:10.37,2013-04-27 22:27:00,
2013-04-27 18:28:00,66.6,24.2,30.10,ESE,112,0.0,0.0,20,0.00,CLR,,0.00,WeatherDisplay:10.37,2013-04-27 22:28:00,
2013-04-27 18:31:00,66.9,24.5,30.10,SE,135,2.3,2.3,20,0.00,CLR,,0.00,WeatherDisplay:10.37,2013-04-27 22:31:00,
2013-04-27 18:33:00,66.7,24.3,30.10,ESE,112,0.0,0.0,20,0.00,CLR,,0.00,WeatherDisplay:10.37,2013-04-27 22:33:00,
2013-04-27 18:36:00,66.6,24.2,30.10,ESE,112,0.0,0.0,20,0.00,CLR,,0.00,WeatherDisplay:10.37,2013-04-27 22:36:00,
2013-04-27 18:38:00,66.7,24.3,30.10,East,90,0.0,0.0,20,0.00,CLR,,0.00,WeatherDisplay:10.37,2013-04-27 22:38:00,
2013-04-27 18:41:00,66.6,24.2,30.10,ESE,112,3.5,3.5,20,0.00,CLR,,0.00,WeatherDisplay:10.37,2013-04-27 22:41:00,
2013-04-27 18:43:00,66.2,23.9,30.10,ESE,112,3.5,3.5,20,0.00,CLR,,0.00,WeatherDisplay:10.37,2013-04-27 22:43:00,
2013-04-27 18:46:00,66.0,23.8,30.10,ESE,112,3.5,3.5,20,0.00,CLR,,0.00,WeatherDisplay:10.37,2013-04-27 22:46:00,
2013-04-27 18:48:00,65.8,23.6,30.10,SE,135,0.0,0.0,20,0.00,CLR,,0.00,WeatherDisplay:10.37,2013-04-27 22:48:00,
2013-04-27 18:51:00,65.7,26.8,30.10,ESE,112,2.4,0.0,23,0.00,CLR,,0.00,WeatherDisplay:10.37,2013-04-27 22:51:00,
2013-04-27 18:53:00,65.7,26.8,30.10,SE,135,2.3,0.0,23,0.00,CLR,,0.00,WeatherDisplay:10.37,2013-04-27 22:53:00,
2013-04-27 18:54:00,65.5,26.7,30.10,SE,135,0.0,0.0,23,0.00,CLR,,0.00,WeatherDisplay:10.37,2013-04-27 22:54:00,
2013-04-27 18:56:00,65.1,26.4,30.10,ESE,112,3.5,0.0,23,0.00,CLR,,0.00,WeatherDisplay:10.37,2013-04-27 22:56:00,
2013-04-27 18:57:00,65.1,26.4,30.10,ESE,112,0.0,0.0,23,0.00,CLR,,0.00,WeatherDisplay:10.37,2013-04-27 22:57:00,
2013-04-27 18:59:00,65.3,26.5,30.10,ESE,112,0.0,0.0,23,0.00,CLR,,0.00,WeatherDisplay:10.37,2013-04-27 22:59:00,
2013-04-27 19:01:00,64.9,26.2,30.10,ESE,112,0.0,0.0,23,0.00,CLR,,0.00,WeatherDisplay:10.37,2013-04-27 23:01:00,
2013-04-27 19:02:00,64.9,26.2,30.10,ESE,112,0.0,0.0,23,0.00,CLR,,0.00,WeatherDisplay:10.37,2013-04-27 23:02:00,
2013-04-27 19:04:00,64.8,26.1,30.10,ESE,112,0.0,0.0,23,0.00,CLR,,0.00,WeatherDisplay:10.37,2013-04-27 23:04:00,
2013-04-27 19:06:00,64.2,25.6,30.10,ESE,112,0.0,0.0,23,0.00,CLR,,0.00,WeatherDisplay:10.37,2013-04-27 23:06:00,
2013-04-27 19:07:00,64.0,25.5,30.10,ESE,112,0.0,0.0,23,0.00,CLR,,0.00,WeatherDisplay:10.37,2013-04-27 23:07:00,
2013-04-27 19:09:00,63.9,26.3,30.10,ESE,112,0.0,0.0,24,0.00,CLR,,0.00,WeatherDisplay:10.37,2013-04-27 23:09:00,
2013-04-27 19:11:00,63.5,26.0,30.10,SE,135,0.0,0.0,24,0.00,CLR,,0.00,WeatherDisplay:10.37,2013-04-27 23:11:00,
2013-04-27 19:12:00,63.5,26.0,30.10,ESE,112,0.0,0.0,24,0.00,CLR,,0.00,WeatherDisplay:10.37,2013-04-27 23:12:00,
2013-04-27 19:14:00,63.1,25.7,30.10,SE,135,0.0,0.0,24,0.00,CLR,,0.00,WeatherDisplay:10.37,2013-04-27 23:14:00,
2013-04-27 19:17:00,62.8,25.4,30.10,ESE,112,0.0,0.0,24,0.00,CLR,,0.00,WeatherDisplay:10.37,2013-04-27 23:17:00,
2013-04-27 19:19:00,62.8,25.4,30.10,ESE,112,0.0,0.0,24,0.00,CLR,,0.00,WeatherDisplay:10.37,2013-04-27 23:19:00,
2013-04-27 19:20:00,62.8,25.4,30.10,ESE,112,0.0,0.0,24,0.00,CLR,,0.00,WeatherDisplay:10.37,2013-04-27 23:20:00,
2013-04-27 19:22:00,62.1,25.8,30.10,ESE,112,0.0,0.0,25,0.00,CLR,,0.00,WeatherDisplay:10.37,2013-04-27 23:22:00,
2013-04-27 19:25:00,61.9,25.6,30.10,ESE,112,0.0,0.0,25,0.00,CLR,,0.00,WeatherDisplay:10.37,2013-04-27 23:25:00,
2013-04-27 19:27:00,61.7,25.5,30.10,ESE,112,0.0,0.0,25,0.00,CLR,,0.00,WeatherDisplay:10.37,2013-04-27 23:27:00,
2013-04-27 19:30:00,61.3,25.2,30.10,ESE,112,0.0,0.0,25,0.00,CLR,,0.00,WeatherDisplay:10.37,2013-04-27 23:30:00,
2013-04-27 19:32:00,61.2,25.0,30.10,ESE,112,1.1,0.0,25,0.00,CLR,,0.00,WeatherDisplay:10.37,2013-04-27 23:32:00,
2013-04-27 19:33:00,61.2,25.0,30.10,ESE,112,2.9,0.0,25,0.00,CLR,,0.00,WeatherDisplay:10.37,2013-04-27 23:33:00,
2013-04-27 19:35:00,61.0,24.9,30.10,SE,135,0.0,0.0,25,0.00,CLR,,0.00,WeatherDisplay:10.37,2013-04-27 23:35:00,
2013-04-27 19:36:00,61.0,24.9,30.10,ESE,112,1.6,1.6,25,0.00,CLR,,0.00,WeatherDisplay:10.37,2013-04-27 23:36:00,
2013-04-27 19:37:00,60.8,25.7,30.10,ESE,112,2.3,2.3,26,0.00,CLR,,0.00,WeatherDisplay:10.37,2013-04-27 23:37:00,
2013-04-27 19:38:00,60.8,25.7,30.10,ESE,112,2.3,0.0,26,0.00,CLR,,0.00,WeatherDisplay:10.37,2013-04-27 23:38:00,
2013-04-27 19:40:00,60.8,25.7,30.10,ESE,112,0.0,0.0,26,0.00,CLR,,0.00,WeatherDisplay:10.37,2013-04-27 23:40:00,
2013-04-27 19:41:00,60.8,25.7,30.10,ESE,112,0.0,0.0,26,0.00,CLR,,0.00,WeatherDisplay:10.37,2013-04-27 23:41:00,
2013-04-27 19:43:00,60.4,25.4,30.10,ESE,112,0.0,0.0,26,0.00,CLR,,0.00,WeatherDisplay:10.37,2013-04-27 23:43:00,
2013-04-27 19:45:00,60.3,26.1,30.10,ESE,112,0.0,0.0,27,0.00,CLR,,0.00,WeatherDisplay:10.37,2013-04-27 23:45:00,
2013-04-27 19:46:00,60.1,26.0,30.10,ESE,112,0.0,0.0,27,0.00,CLR,,0.00,WeatherDisplay:10.37,2013-04-27 23:46:00,
2013-04-27 19:48:00,59.9,25.8,30.10,ESE,112,0.0,0.0,27,0.00,CLR,,0.00,WeatherDisplay:10.37,2013-04-27 23:48:00,
2013-04-27 19:50:00,59.7,25.6,30.10,ESE,112,0.0,0.0,27,0.00,CLR,,0.00,WeatherDisplay:10.37,2013-04-27 23:50:00,
2013-04-27 19:51:00,59.7,25.6,30.10,ESE,112,0.0,0.0,27,0.00,CLR,,0.00,WeatherDisplay:10.37,2013-04-27 23:51:00,
2013-04-27 19:54:00,59.5,25.5,30.07,ESE,112,0.0,0.0,27,0.00,CLR,,0.00,WeatherDisplay:10.37,2013-04-27 23:54:00,
2013-04-27 19:55:00,59.4,26.2,30.07,ESE,112,0.0,0.0,28,0.00,CLR,,0.00,WeatherDisplay:10.37,2013-04-27 23:55:00,
2013-04-27 19:56:00,59.4,26.2,30.07,ESE,112,0.0,0.0,28,0.00,CLR,,0.00,WeatherDisplay:10.37,2013-04-27 23:56:00,
2013-04-27 19:59:00,59.2,26.1,30.07,ESE,112,0.0,0.0,28,0.00,CLR,,0.00,WeatherDisplay:10.37,2013-04-27 23:59:00,
2013-04-27 20:00:00,59.2,26.1,30.07,ESE,112,0.0,0.0,28,0.00,CLR,,0.00,WeatherDisplay:10.37,2013-04-28 00:00:00,
2013-04-27 20:01:00,59.0,25.9,30.07,ESE,112,0.0,0.0,28,0.00,CLR,,0.00,WeatherDisplay:10.37,2013-04-28 00:01:00,
2013-04-27 20:02:00,58.8,25.7,30.07,ESE,112,0.0,0.0,28,0.00,CLR,,0.00,WeatherDisplay:10.37,2013-04-28 00:02:00,
2013-04-27 20:04:00,58.8,26.6,30.07,ESE,112,0.0,0.0,29,0.00,CLR,,0.00,WeatherDisplay:10.37,2013-04-28 00:04:00,
2013-04-27 20:05:00,58.6,26.4,30.07,ESE,112,0.0,0.0,29,0.00,CLR,,0.00,WeatherDisplay:10.37,2013-04-28 00:05:00,
2013-04-27 20:06:00,58.6,26.4,30.07,ESE,112,0.0,0.0,29,0.00,CLR,,0.00,WeatherDisplay:10.37,2013-04-28 00:06:00,
2013-04-27 20:07:00,58.6,26.4,30.07,ESE,112,0.0,0.0,29,0.00,CLR,,0.00,WeatherDisplay:10.37,2013-04-28 00:07:00,
2013-04-27 20:10:00,58.5,26.3,30.10,ESE,112,0.0,0.0,29,0.00,CLR,,0.00,WeatherDisplay:10.37,2013-04-28 00:10:00,
2013-04-27 20:12:00,58.5,26.3,30.10,ESE,112,0.0,0.0,29,0.00,CLR,,0.00,WeatherDisplay:10.37,2013-04-28 00:12:00,
2013-04-27 20:15:00,58.5,26.3,30.10,ESE,112,0.0,0.0,29,0.00,CLR,,0.00,WeatherDisplay:10.37,2013-04-28 00:15:00,
2013-04-27 20:17:00,58.5,26.3,30.10,ESE,112,0.0,0.0,29,0.00,CLR,,0.00,WeatherDisplay:10.37,2013-04-28 00:17:00,
2013-04-27 20:20:00,57.7,26.5,30.10,ESE,112,0.0,0.0,30,0.00,CLR,,0.00,WeatherDisplay:10.37,2013-04-28 00:20:00,
2013-04-27 20:22:00,57.6,26.3,30.10,ESE,112,0.0,0.0,30,0.00,CLR,,0.00,WeatherDisplay:10.37,2013-04-28 00:22:00,
2013-04-27 20:25:00,57.6,26.3,30.10,ESE,112,0.0,0.0,30,0.00,CLR,,0.00,WeatherDisplay:10.37,2013-04-28 00:25:00,
2013-04-27 20:26:00,57.6,26.3,30.10,ESE,112,0.0,0.0,30,0.00,CLR,,0.00,WeatherDisplay:10.37,2013-04-28 00:26:00,
2013-04-27 20:27:00,57.6,26.3,30.10,ESE,112,0.0,0.0,30,0.00,CLR,,0.00,WeatherDisplay:10.37,2013-04-28 00:27:00,
2013-04-27 20:30:00,57.6,26.3,30.10,ESE,112,0.0,0.0,30,0.00,CLR,,0.00,WeatherDisplay:10.37,2013-04-28 00:30:00,
2013-04-27 20:31:00,57.6,26.3,30.10,ESE,112,0.0,0.0,30,0.00,CLR,,0.00,WeatherDisplay:10.37,2013-04-28 00:31:00,
2013-04-27 20:32:00,57.6,26.3,30.10,ESE,112,0.0,0.0,30,0.00,CLR,,0.00,WeatherDisplay:10.37,2013-04-28 00:32:00,
2013-04-27 20:33:00,57.6,26.3,30.10,ESE,112,0.0,0.0,30,0.00,CLR,,0.00,WeatherDisplay:10.37,2013-04-28 00:33:00,
2013-04-27 20:35:00,57.6,26.3,30.10,ESE,112,0.0,0.0,30,0.00,CLR,,0.00,WeatherDisplay:10.37,2013-04-28 00:35:00,
2013-04-27 20:37:00,57.6,26.3,30.10,ESE,112,0.0,0.0,30,0.00,CLR,,0.00,WeatherDisplay:10.37,2013-04-28 00:37:00,
2013-04-27 20:38:00,57.6,26.3,30.10,ESE,112,0.0,0.0,30,0.00,CLR,,0.00,WeatherDisplay:10.37,2013-04-28 00:38:00,
2013-04-27 20:40:00,57.6,26.3,30.10,ESE,112,0.0,0.0,30,0.00,CLR,,0.00,WeatherDisplay:10.37,2013-04-28 00:40:00,
2013-04-27 20:42:00,57.6,26.3,30.10,ESE,112,0.0,0.0,30,0.00,CLR,,0.00,WeatherDisplay:10.37,2013-04-28 00:42:00,
2013-04-27 20:43:00,57.6,26.3,30.10,ESE,112,0.0,0.0,30,0.00,CLR,,0.00,WeatherDisplay:10.37,2013-04-28 00:43:00,
2013-04-27 20:46:00,56.3,29.0,30.10,ESE,112,0.0,0.0,35,0.00,CLR,,0.00,WeatherDisplay:10.37,2013-04-28 00:46:00,
2013-04-27 20:48:00,56.3,29.0,30.10,ESE,112,0.0,0.0,35,0.00,CLR,,0.00,WeatherDisplay:10.37,2013-04-28 00:48:00,
2013-04-27 20:52:00,56.1,28.8,30.10,ESE,112,0.0,0.0,35,0.00,CLR,,0.00,WeatherDisplay:10.37,2013-04-28 00:52:00,
2013-04-27 20:53:00,56.1,28.8,30.10,ESE,112,0.0,0.0,35,0.00,CLR,,0.00,WeatherDisplay:10.37,2013-04-28 00:53:00,
2013-04-27 20:54:00,55.9,28.7,30.10,ESE,112,0.0,0.0,35,0.00,CLR,,0.00,WeatherDisplay:10.37,2013-04-28 00:54:00,
2013-04-27 20:57:00,55.6,28.3,30.10,ESE,112,0.0,0.0,35,0.00,CLR,,0.00,WeatherDisplay:10.37,2013-04-28 00:57:00,
2013-04-27 20:58:00,55.6,28.3,30.10,ESE,112,0.0,0.0,35,0.00,CLR,,0.00,WeatherDisplay:10.37,2013-04-28 00:58:00,
2013-04-27 20:59:00,55.6,28.3,30.10,ESE,112,0.0,0.0,35,0.00,CLR,,0.00,WeatherDisplay:10.37,2013-04-28 00:59:00,
2013-04-27 21:02:00,55.2,28.7,30.10,ESE,112,0.0,0.0,36,0.00,CLR,,0.00,WeatherDisplay:10.37,2013-04-28 01:02:00,
2013-04-27 21:03:00,55.2,28.7,30.10,ESE,112,0.0,0.0,36,0.00,CLR,,0.00,WeatherDisplay:10.37,2013-04-28 01:03:00,
2013-04-27 21:04:00,55.2,28.7,30.10,ESE,112,0.0,0.0,36,0.00,CLR,,0.00,WeatherDisplay:10.37,2013-04-28 01:04:00,
2013-04-27 21:07:00,55.4,28.9,30.10,ESE,112,0.0,0.0,36,0.00,CLR,,0.00,WeatherDisplay:10.37,2013-04-28 01:07:00,
2013-04-27 21:08:00,55.4,28.9,30.10,ESE,112,0.0,0.0,36,0.00,CLR,,0.00,WeatherDisplay:10.37,2013-04-28 01:08:00,
2013-04-27 21:09:00,55.4,28.9,30.10,ESE,112,0.0,0.0,36,0.00,CLR,,0.00,WeatherDisplay:10.37,2013-04-28 01:09:00,
2013-04-27 21:12:00,55.4,28.9,30.10,ESE,112,0.0,0.0,36,0.00,CLR,,0.00,WeatherDisplay:10.37,2013-04-28 01:12:00,
2013-04-27 21:13:00,55.4,28.9,30.10,ESE,112,0.0,0.0,36,0.00,CLR,,0.00,WeatherDisplay:10.37,2013-04-28 01:13:00,
2013-04-27 21:14:00,55.4,28.9,30.10,ESE,112,0.0,0.0,36,0.00,CLR,,0.00,WeatherDisplay:10.37,2013-04-28 01:14:00,
2013-04-27 21:17:00,55.8,29.2,30.10,ESE,112,0.0,0.0,36,0.00,CLR,,0.00,WeatherDisplay:10.37,2013-04-28 01:17:00,
2013-04-27 21:19:00,55.8,29.2,30.10,ESE,112,0.0,0.0,36,0.00,CLR,,0.00,WeatherDisplay:10.37,2013-04-28 01:19:00,
2013-04-27 21:23:00,55.8,29.2,30.10,ESE,112,0.0,0.0,36,0.00,CLR,,0.00,WeatherDisplay:10.37,2013-04-28 01:23:00,
2013-04-27 21:24:00,55.8,29.2,30.10,ESE,112,0.0,0.0,36,0.00,CLR,,0.00,WeatherDisplay:10.37,2013-04-28 01:24:00,
2013-04-27 21:25:00,55.8,29.2,30.10,ESE,112,0.0,0.0,36,0.00,CLR,,0.00,WeatherDisplay:10.37,2013-04-28 01:25:00,
2013-04-27 21:28:00,55.9,29.3,30.10,SSE,158,0.0,0.0,36,0.00,CLR,,0.00,WeatherDisplay:10.37,2013-04-28 01:28:00,
2013-04-27 21:29:00,55.9,29.3,30.10,SSE,158,0.0,0.0,36,0.00,CLR,,0.00,WeatherDisplay:10.37,2013-04-28 01:29:00,
2013-04-27 21:30:00,55.9,29.3,30.10,SSE,158,0.0,0.0,36,0.00,CLR,,0.00,WeatherDisplay:10.37,2013-04-28 01:30:00,
2013-04-27 21:33:00,55.9,29.3,30.10,SSE,158,0.0,0.0,36,0.00,CLR,,0.00,WeatherDisplay:10.37,2013-04-28 01:33:00,
2013-04-27 21:34:00,55.9,29.3,30.10,SSE,158,0.0,0.0,36,0.00,CLR,,0.00,WeatherDisplay:10.37,2013-04-28 01:34:00,
2013-04-27 21:35:00,55.9,29.3,30.10,SSE,158,0.0,0.0,36,0.00,CLR,,0.00,WeatherDisplay:10.37,2013-04-28 01:35:00,
2013-04-27 21:39:00,55.6,29.0,30.10,SSE,158,0.0,0.0,36,0.00,CLR,,0.00,WeatherDisplay:10.37,2013-04-28 01:39:00,
2013-04-27 21:40:00,55.6,29.0,30.10,SSE,158,0.0,0.0,36,0.00,CLR,,0.00,WeatherDisplay:10.37,2013-04-28 01:40:00,
2013-04-27 21:44:00,55.6,29.0,30.10,SSE,158,0.0,0.0,36,0.00,CLR,,0.00,WeatherDisplay:10.37,2013-04-28 01:44:00,
2013-04-27 21:45:00,55.6,29.0,30.10,SSE,158,0.0,0.0,36,0.00,CLR,,0.00,WeatherDisplay:10.37,2013-04-28 01:45:00,
2013-04-27 21:46:00,55.6,28.3,30.10,SSE,158,0.0,0.0,35,0.00,CLR,,0.00,WeatherDisplay:10.37,2013-04-28 01:46:00,
2013-04-27 21:49:00,55.6,28.3,30.10,SSE,158,0.0,0.0,35,0.00,CLR,,0.00,WeatherDisplay:10.37,2013-04-28 01:49:00,
2013-04-27 21:50:00,55.6,28.3,30.10,SSE,158,0.0,0.0,35,0.00,CLR,,0.00,WeatherDisplay:10.37,2013-04-28 01:50:00,
2013-04-27 21:51:00,55.6,28.3,30.10,SSE,158,0.0,0.0,35,0.00,CLR,,0.00,WeatherDisplay:10.37,2013-04-28 01:51:00,
2013-04-27 21:54:00,55.6,28.3,30.10,SSE,158,0.0,0.0,35,0.00,CLR,,0.00,WeatherDisplay:10.37,2013-04-28 01:54:00,
2013-04-27 21:55:00,55.6,28.3,30.10,SSE,158,0.0,0.0,35,0.00,CLR,,0.00,WeatherDisplay:10.37,2013-04-28 01:55:00,
2013-04-27 21:56:00,55.2,28.7,30.10,SSE,158,0.0,0.0,36,0.00,CLR,,0.00,WeatherDisplay:10.37,2013-04-28 01:56:00,
2013-04-27 21:59:00,55.4,28.2,30.10,SSE,158,0.0,0.0,35,0.00,CLR,,0.00,WeatherDisplay:10.37,2013-04-28 01:59:00,
2013-04-27 22:00:00,55.4,28.2,30.10,SSE,158,0.0,0.0,35,0.00,CLR,,0.00,WeatherDisplay:10.37,2013-04-28 02:00:00,
2013-04-27 22:01:00,55.4,28.2,30.10,SSE,158,0.0,0.0,35,0.00,CLR,,0.00,WeatherDisplay:10.37,2013-04-28 02:01:00,
2013-04-27 22:05:00,55.4,28.2,30.10,SSW,202,0.0,0.0,35,0.00,CLR,,0.00,WeatherDisplay:10.37,2013-04-28 02:05:00,
2013-04-27 22:06:00,55.4,28.2,30.10,SSE,158,0.0,0.0,35,0.00,CLR,,0.00,WeatherDisplay:10.37,2013-04-28 02:06:00,
2013-04-27 22:10:00,55.6,28.3,30.10,South,180,0.0,0.0,35,0.00,CLR,,0.00,WeatherDisplay:10.37,2013-04-28 02:10:00,
2013-04-27 22:11:00,55.6,28.3,30.10,South,180,0.0,0.0,35,0.00,CLR,,0.00,WeatherDisplay:10.37,2013-04-28 02:11:00,
2013-04-27 22:15:00,55.6,28.3,30.10,South,180,0.0,0.0,35,0.00,CLR,,0.00,WeatherDisplay:10.37,2013-04-28 02:15:00,
2013-04-27 22:16:00,55.6,28.3,30.10,South,180,0.0,0.0,35,0.00,CLR,,0.00,WeatherDisplay:10.37,2013-04-28 02:16:00,
2013-04-27 22:17:00,55.6,28.3,30.10,South,180,0.0,0.0,35,0.00,CLR,,0.00,WeatherDisplay:10.37,2013-04-28 02:17:00,
2013-04-27 22:20:00,55.6,28.3,30.10,South,180,0.0,0.0,35,0.00,CLR,,0.00,WeatherDisplay:10.37,2013-04-28 02:20:00,
2013-04-27 22:21:00,55.6,28.3,30.10,South,180,0.0,0.0,35,0.00,CLR,,0.00,WeatherDisplay:10.37,2013-04-28 02:21:00,
2013-04-27 22:22:00,55.6,28.3,30.10,South,180,0.0,0.0,35,0.00,CLR,,0.00,WeatherDisplay:10.37,2013-04-28 02:22:00,
2013-04-27 22:25:00,55.0,28.5,30.10,South,180,0.0,0.0,36,0.00,CLR,,0.00,WeatherDisplay:10.37,2013-04-28 02:25:00,
2013-04-27 22:26:00,55.0,28.5,30.10,South,180,0.0,0.0,36,0.00,CLR,,0.00,WeatherDisplay:10.37,2013-04-28 02:26:00,
2013-04-27 22:27:00,55.0,28.5,30.10,South,180,0.0,0.0,36,0.00,CLR,,0.00,WeatherDisplay:10.37,2013-04-28 02:27:00,
2013-04-27 22:30:00,54.1,27.7,30.10,South,180,0.0,0.0,36,0.00,CLR,,0.00,WeatherDisplay:10.37,2013-04-28 02:30:00,
2013-04-27 22:31:00,54.1,27.7,30.10,South,180,0.0,0.0,36,0.00,CLR,,0.00,WeatherDisplay:10.37,2013-04-28 02:31:00,
2013-04-27 22:32:00,54.1,27.7,30.10,South,180,0.0,0.0,36,0.00,CLR,,0.00,WeatherDisplay:10.37,2013-04-28 02:32:00,
2013-04-27 22:35:00,54.1,27.7,30.10,SSE,158,0.0,0.0,36,0.00,CLR,,0.00,WeatherDisplay:10.37,2013-04-28 02:35:00,
2013-04-27 22:36:00,54.1,27.7,30.10,SSE,158,0.0,0.0,36,0.00,CLR,,0.00,WeatherDisplay:10.37,2013-04-28 02:36:00,
2013-04-27 22:37:00,53.6,27.3,30.10,SSE,158,0.0,0.0,36,0.00,CLR,,0.00,WeatherDisplay:10.37,2013-04-28 02:37:00,
2013-04-27 22:40:00,53.6,27.3,30.10,SSE,158,0.0,0.0,36,0.00,CLR,,0.00,WeatherDisplay:10.37,2013-04-28 02:40:00,
2013-04-27 22:41:00,53.6,27.3,30.10,SSE,158,0.0,0.0,36,0.00,CLR,,0.00,WeatherDisplay:10.37,2013-04-28 02:41:00,
2013-04-27 22:42:00,53.6,27.3,30.10,SSE,158,0.0,0.0,36,0.00,CLR,,0.00,WeatherDisplay:10.37,2013-04-28 02:42:00,
2013-04-27 22:45:00,52.9,27.3,30.10,SSE,158,0.0,0.0,37,0.00,CLR,,0.00,WeatherDisplay:10.37,2013-04-28 02:45:00,
2013-04-27 22:46:00,53.2,27.6,30.10,SSE,158,0.0,0.0,37,0.00,CLR,,0.00,WeatherDisplay:10.37,2013-04-28 02:46:00,
2013-04-27 22:47:00,53.2,27.6,30.10,SSE,158,0.0,0.0,37,0.00,CLR,,0.00,WeatherDisplay:10.37,2013-04-28 02:47:00,
2013-04-27 22:48:00,53.4,27.8,30.10,SSE,158,0.0,0.0,37,0.00,CLR,,0.00,WeatherDisplay:10.37,2013-04-28 02:48:00,
2013-04-27 22:50:00,54.0,28.3,30.10,SSE,158,0.0,0.0,37,0.00,CLR,,0.00,WeatherDisplay:10.37,2013-04-28 02:50:00,
2013-04-27 22:52:00,54.0,28.3,30.10,SSE,158,0.0,0.0,37,0.00,CLR,,0.00,WeatherDisplay:10.37,2013-04-28 02:52:00,
2013-04-27 22:53:00,54.1,28.4,30.10,SSE,158,0.0,0.0,37,0.00,CLR,,0.00,WeatherDisplay:10.37,2013-04-28 02:53:00,
2013-04-27 22:56:00,54.5,28.7,30.10,SSE,158,0.0,0.0,37,0.00,CLR,,0.00,WeatherDisplay:10.37,2013-04-28 02:56:00,
2013-04-27 22:57:00,54.5,28.7,30.10,SSW,202,0.0,0.0,37,0.00,CLR,,0.00,WeatherDisplay:10.37,2013-04-28 02:57:00,
2013-04-27 22:58:00,54.5,28.7,30.10,South,180,0.0,0.0,37,0.00,CLR,,0.00,WeatherDisplay:10.37,2013-04-28 02:58:00,
2013-04-27 23:01:00,54.7,28.9,30.10,South,180,0.0,0.0,37,0.00,CLR,,0.00,WeatherDisplay:10.37,2013-04-28 03:01:00,
2013-04-27 23:03:00,54.9,29.1,30.10,South,180,0.0,0.0,37,0.00,CLR,,0.00,WeatherDisplay:10.37,2013-04-28 03:03:00,
2013-04-27 23:06:00,55.2,29.4,30.10,SW,225,0.0,0.0,37,0.00,CLR,,0.00,WeatherDisplay:10.37,2013-04-28 03:06:00,
2013-04-27 23:08:00,55.2,29.4,30.10,South,180,0.0,0.0,37,0.00,CLR,,0.00,WeatherDisplay:10.37,2013-04-28 03:08:00,
2013-04-27 23:11:00,55.2,29.4,30.10,SSW,202,0.0,0.0,37,0.00,CLR,,0.00,WeatherDisplay:10.37,2013-04-28 03:11:00,
2013-04-27 23:13:00,55.2,29.4,30.10,SSW,202,0.0,0.0,37,0.00,CLR,,0.00,WeatherDisplay:10.37,2013-04-28 03:13:00,
2013-04-27 23:14:00,55.2,29.4,30.10,SSW,202,0.0,0.0,37,0.00,CLR,,0.00,WeatherDisplay:10.37,2013-04-28 03:14:00,
2013-04-27 23:16:00,55.8,29.2,30.10,South,180,0.0,0.0,36,0.00,CLR,,0.00,WeatherDisplay:10.37,2013-04-28 03:16:00,
2013-04-27 23:18:00,55.8,29.2,30.10,SSE,158,0.0,0.0,36,0.00,CLR,,0.00,WeatherDisplay:10.37,2013-04-28 03:18:00,
2013-04-27 23:19:00,55.8,29.2,30.10,SSW,202,0.0,0.0,36,0.00,CLR,,0.00,WeatherDisplay:10.37,2013-04-28 03:19:00,
2013-04-27 23:21:00,55.8,29.2,30.10,SW,225,0.0,0.0,36,0.00,CLR,,0.00,WeatherDisplay:10.37,2013-04-28 03:21:00,
2013-04-27 23:23:00,55.8,29.2,30.10,SSW,202,0.0,0.0,36,0.00,CLR,,0.00,WeatherDisplay:10.37,2013-04-28 03:23:00,
2013-04-27 23:24:00,55.8,29.2,30.10,SSW,202,0.0,0.0,36,0.00,CLR,,0.00,WeatherDisplay:10.37,2013-04-28 03:24:00,
2013-04-27 23:26:00,55.8,29.2,30.10,SSW,202,0.0,0.0,36,0.00,CLR,,0.00,WeatherDisplay:10.37,2013-04-28 03:26:00,
2013-04-27 23:28:00,55.8,29.2,30.10,SSW,202,0.0,0.0,36,0.00,CLR,,0.00,WeatherDisplay:10.37,2013-04-28 03:28:00,
2013-04-27 23:29:00,55.8,29.2,30.10,SSW,202,0.0,0.0,36,0.00,CLR,,0.00,WeatherDisplay:10.37,2013-04-28 03:29:00,
2013-04-27 23:32:00,55.8,29.2,30.10,SW,225,0.0,0.0,36,0.00,CLR,,0.00,WeatherDisplay:10.37,2013-04-28 03:32:00,
2013-04-27 23:34:00,55.8,29.2,30.10,SSW,202,0.0,0.0,36,0.00,CLR,,0.00,WeatherDisplay:10.37,2013-04-28 03:34:00,
2013-04-27 23:37:00,55.8,29.2,30.10,SSW,202,0.0,0.0,36,0.00,CLR,,0.00,WeatherDisplay:10.37,2013-04-28 03:37:00,
2013-04-27 23:39:00,55.8,29.2,30.07,SSW,202,0.0,0.0,36,0.00,CLR,,0.00,WeatherDisplay:10.37,2013-04-28 03:39:00,
2013-04-27 23:40:00,55.8,29.2,30.07,SSW,202,0.0,0.0,36,0.00,CLR,,0.00,WeatherDisplay:10.37,2013-04-28 03:40:00,
2013-04-27 23:43:00,55.8,29.2,30.07,SSW,202,0.0,0.0,36,0.00,CLR,,0.00,WeatherDisplay:10.37,2013-04-28 03:43:00,
2013-04-27 23:45:00,55.8,29.2,30.07,SSE,158,0.0,0.0,36,0.00,CLR,,0.00,WeatherDisplay:10.37,2013-04-28 03:45:00,
2013-04-27 23:48:00,55.8,29.2,30.07,SSE,158,0.0,0.0,36,0.00,CLR,,0.00,WeatherDisplay:10.37,2013-04-28 03:48:00,
2013-04-27 23:50:00,55.8,29.2,30.07,SSE,158,0.0,0.0,36,0.00,CLR,,0.00,WeatherDisplay:10.37,2013-04-28 03:50:00,
2013-04-27 23:53:00,55.8,29.2,30.10,SSE,158,0.0,0.0,36,0.00,CLR,,0.00,WeatherDisplay:10.37,2013-04-28 03:53:00,
2013-04-27 23:55:00,55.8,29.2,30.10,SSE,158,0.0,0.0,36,0.00,CLR,,0.00,WeatherDisplay:10.37,2013-04-28 03:55:00,
2013-04-27 23:56:00,55.8,29.2,30.10,SSE,158,0.0,0.0,36,0.00,CLR,,0.00,WeatherDisplay:10.37,2013-04-28 03:56:00,
2013-04-27 23:58:00,55.8,29.2,30.10,SSE,158,0.0,0.0,36,0.00,CLR,,0.00,WeatherDisplay:10.37,2013-04-28 03:58:00,